Observation data for New Home on 06/24/2019      Previous  Date  Next       Current Mesonet Observations  Soil Data  Daily Summary Page  Observations in Plain Language
KNH1 240500Z 19003KT 24/04 A2992 RMK A01 T02350037  RH  027%=      5-min Rain = 0
KNH1 240501Z 18003KT 24/04 A2992 RMK A01 T02350038  RH  028%=      5-min Rain = 0
KNH1 240502Z 18002KT 23/04 A2992 RMK A01 T02330044  RH  029%=      5-min Rain = 0
KNH1 240503Z 18002KT 23/05 A2992 RMK A01 T02310049  RH  031%=      5-min Rain = 0
KNH1 240504Z 18002KT 23/04 A2992 RMK A01 T02280044  RH  030%=      5-min Rain = 0
KNH1 240505Z 18002KT 23/05 A2992 RMK A01 T02270047  RH  031%=      5-min Rain = 0
KNH1 240506Z 18002KT 23/05 A2992 RMK A01 T02250050  RH  032%=      5-min Rain = 0
KNH1 240507Z 19001KT 22/05 A2992 RMK A01 T02230049  RH  032%=      5-min Rain = 0
KNH1 240508Z 20001KT 22/05 A2992 RMK A01 T02220046  RH  032%=      5-min Rain = 0
KNH1 240509Z 20001KT 22/05 A2992 RMK A01 T02210049  RH  032%=      5-min Rain = 0
KNH1 240510Z 20001KT 22/04 A2992 RMK A01 T02210042  RH  031%=      5-min Rain = 0
KNH1 240511Z 21001KT 22/04 A2992 RMK A01 T02220041  RH  031%=      5-min Rain = 0
KNH1 240512Z 21001KT 22/04 A2992 RMK A01 T02230042  RH  031%=      5-min Rain = 0
KNH1 240513Z 21000KT 22/04 A2992 RMK A01 T02240043  RH  031%=      5-min Rain = 0
KNH1 240514Z 00000KT 22/05 A2993 RMK A01 T02240045  RH  031%=      5-min Rain = 0
KNH1 240515Z 35009G14KT 22/05 A2993 RMK A01 T02240047  RH  032%=      5-min Rain = 0
KNH1 240516Z 00009KT 22/05 A2993 RMK A01 T02230046  RH  032%=      5-min Rain = 0
KNH1 240517Z 00008KT 22/05 A2993 RMK A01 T02230046  RH  032%=      5-min Rain = 0
KNH1 240518Z 01006KT 22/04 A2993 RMK A01 T02230042  RH  031%=      5-min Rain = 0
KNH1 240519Z 01006KT 23/04 A2994 RMK A01 T02270040  RH  029%=      5-min Rain = 0
KNH1 240520Z 03006KT 23/04 A2994 RMK A01 T02300040  RH  029%=      5-min Rain = 0
KNH1 240521Z 04009KT 23/04 A2994 RMK A01 T02310041  RH  029%=      5-min Rain = 0
KNH1 240522Z 05008KT 23/04 A2994 RMK A01 T02320042  RH  029%=      5-min Rain = 0
KNH1 240523Z 06007KT 23/04 A2994 RMK A01 T02310044  RH  030%=      5-min Rain = 0
KNH1 240524Z 07010KT 23/05 A2994 RMK A01 T02290050  RH  031%=      5-min Rain = 0
KNH1 240525Z 08010KT 23/06 A2994 RMK A01 T02330062  RH  033%=      5-min Rain = 0
KNH1 240526Z 08012KT 24/10 A2994 RMK A01 T02380095  RH  040%=      5-min Rain = 0
KNH1 240527Z 07012KT 24/12 A2994 RMK A01 T02420116  RH  045%=      5-min Rain = 0
KNH1 240528Z 08009KT 24/12 A2995 RMK A01 T02440116  RH  045%=      5-min Rain = 0
KNH1 240529Z 08007KT 24/12 A2995 RMK A01 T02430115  RH  045%=      5-min Rain = 0
KNH1 240530Z 08008KT 24/12 A2995 RMK A01 T02420115  RH  045%=      5-min Rain = 0
KNH1 240531Z 08008KT 24/12 A2995 RMK A01 T02430116  RH  045%=      5-min Rain = 0
KNH1 240532Z 08007KT 24/11 A2995 RMK A01 T02430114  RH  044%=      5-min Rain = 0
KNH1 240533Z 08006KT 24/11 A2995 RMK A01 T02420111  RH  044%=      5-min Rain = 0
KNH1 240534Z 08006KT 24/11 A2995 RMK A01 T02410109  RH  043%=      5-min Rain = 0
KNH1 240535Z 07006KT 24/11 A2995 RMK A01 T02390109  RH  044%=      5-min Rain = 0
KNH1 240536Z 06006KT 24/11 A2995 RMK A01 T02370108  RH  044%=      5-min Rain = 0
KNH1 240537Z 06006KT 24/11 A2995 RMK A01 T02360106  RH  044%=      5-min Rain = 0
KNH1 240538Z 06005KT 24/11 A2995 RMK A01 T02350105  RH  044%=      5-min Rain = 0
KNH1 240539Z 06005KT 23/10 A2995 RMK A01 T02340103  RH  043%=      5-min Rain = 0
KNH1 240540Z 06005KT 23/10 A2995 RMK A01 T02340102  RH  043%=      5-min Rain = 0
KNH1 240541Z 05006KT 23/10 A2995 RMK A01 T02320101  RH  043%=      5-min Rain = 0
KNH1 240542Z 06006KT 23/10 A2995 RMK A01 T02310100  RH  043%=      5-min Rain = 0
KNH1 240543Z 07006KT 23/10 A2995 RMK A01 T02310100  RH  044%=      5-min Rain = 0
KNH1 240544Z 07006KT 23/10 A2995 RMK A01 T02300100  RH  044%=      5-min Rain = 0
KNH1 240545Z 07005KT 23/10 A2995 RMK A01 T02300100  RH  044%=      5-min Rain = 0
KNH1 240546Z 07005KT 23/10 A2995 RMK A01 T02290099  RH  044%=      5-min Rain = 0
KNH1 240547Z 07005KT 23/10 A2995 RMK A01 T02280099  RH  044%=      5-min Rain = 0
KNH1 240548Z 07006KT 23/10 A2995 RMK A01 T02270100  RH  045%=      5-min Rain = 0
KNH1 240549Z 08005KT 23/10 A2995 RMK A01 T02250101  RH  045%=      5-min Rain = 0
KNH1 240550Z 08005KT 22/10 A2994 RMK A01 T02230101  RH  046%=      5-min Rain = 0
KNH1 240551Z 09005KT 22/10 A2994 RMK A01 T02230104  RH  047%=      5-min Rain = 0
KNH1 240552Z 10005KT 22/11 A2994 RMK A01 T02230106  RH  047%=      5-min Rain = 0
KNH1 240553Z 10005KT 22/11 A2994 RMK A01 T02230109  RH  048%=      5-min Rain = 0
KNH1 240554Z 10005KT 22/11 A2994 RMK A01 T02230109  RH  048%=      5-min Rain = 0
KNH1 240555Z 10005KT 22/11 A2994 RMK A01 T02230109  RH  048%=      5-min Rain = 0
KNH1 240556Z 10005KT 22/11 A2994 RMK A01 T02230111  RH  049%=      5-min Rain = 0
KNH1 240557Z 10004KT 22/11 A2994 RMK A01 T02230111  RH  049%=      5-min Rain = 0
KNH1 240558Z 10005KT 22/11 A2994 RMK A01 T02230111  RH  049%=      5-min Rain = 0
KNH1 240559Z 10005KT 22/11 A2994 RMK A01 T02220109  RH  049%=      5-min Rain = 0
KNH1 240600Z 10005KT 22/11 A2994 RMK A01 T02210107  RH  048%=      5-min Rain = 0
KNH1 240601Z 10005KT 22/11 A2994 RMK A01 T02200107  RH  049%=      5-min Rain = 0
KNH1 240602Z 11003KT 22/11 A2994 RMK A01 T02190107  RH  049%=      5-min Rain = 0
KNH1 240603Z 11004KT 22/11 A2994 RMK A01 T02180107  RH  049%=      5-min Rain = 0
KNH1 240604Z 11005KT 22/11 A2994 RMK A01 T02170109  RH  050%=      5-min Rain = 0
KNH1 240605Z 11005KT 22/11 A2994 RMK A01 T02160111  RH  051%=      5-min Rain = 0
KNH1 240606Z 11004KT 22/11 A2994 RMK A01 T02160112  RH  052%=      5-min Rain = 0
KNH1 240607Z 11003KT 22/11 A2994 RMK A01 T02160113  RH  052%=      5-min Rain = 0
KNH1 240608Z 11004KT 22/11 A2994 RMK A01 T02150114  RH  052%=      5-min Rain = 0
KNH1 240609Z 11006KT 22/12 A2994 RMK A01 T02150116  RH  053%=      5-min Rain = 0
KNH1 240610Z 11006KT 22/12 A2994 RMK A01 T02150117  RH  054%=      5-min Rain = 0
KNH1 240611Z 11007KT 22/12 A2994 RMK A01 T02150118  RH  054%=      5-min Rain = 0
KNH1 240612Z 11006KT 22/12 A2993 RMK A01 T02150120  RH  055%=      5-min Rain = 0
KNH1 240613Z 11007KT 22/12 A2993 RMK A01 T02150121  RH  055%=      5-min Rain = 0
KNH1 240614Z 11007KT 22/12 A2993 RMK A01 T02150122  RH  055%=      5-min Rain = 0
KNH1 240615Z 10006KT 22/12 A2993 RMK A01 T02160123  RH  056%=      5-min Rain = 0
KNH1 240616Z 11005KT 22/12 A2993 RMK A01 T02160124  RH  056%=      5-min Rain = 0
KNH1 240617Z 11004KT 22/12 A2993 RMK A01 T02160124  RH  056%=      5-min Rain = 0
KNH1 240618Z 10004KT 22/12 A2993 RMK A01 T02160123  RH  056%=      5-min Rain = 0
KNH1 240619Z 11004KT 22/12 A2993 RMK A01 T02150123  RH  056%=      5-min Rain = 0
KNH1 240620Z 11005KT 21/12 A2993 RMK A01 T02130124  RH  057%=      5-min Rain = 0
KNH1 240621Z 11004KT 21/13 A2993 RMK A01 T02130126  RH  058%=      5-min Rain = 0
KNH1 240622Z 11005KT 21/13 A2993 RMK A01 T02130126  RH  058%=      5-min Rain = 0
KNH1 240623Z 11006KT 21/13 A2993 RMK A01 T02130127  RH  058%=      5-min Rain = 0
KNH1 240624Z 10005KT 21/13 A2993 RMK A01 T02130127  RH  058%=      5-min Rain = 0
KNH1 240625Z 11004KT 21/13 A2993 RMK A01 T02130128  RH  058%=      5-min Rain = 0
KNH1 240626Z 10004KT 21/13 A2993 RMK A01 T02120129  RH  059%=      5-min Rain = 0
KNH1 240627Z 11006KT 21/13 A2993 RMK A01 T02120130  RH  060%=      5-min Rain = 0
KNH1 240628Z 11007KT 21/13 A2993 RMK A01 T02120130  RH  059%=      5-min Rain = 0
KNH1 240629Z 11007KT 21/13 A2993 RMK A01 T02120131  RH  060%=      5-min Rain = 0
KNH1 240630Z 11008KT 21/13 A2993 RMK A01 T02120134  RH  061%=      5-min Rain = 0
KNH1 240631Z 11007KT 21/14 A2993 RMK A01 T02130137  RH  062%=      5-min Rain = 0
KNH1 240632Z 11006KT 22/14 A2993 RMK A01 T02150138  RH  062%=      5-min Rain = 0
KNH1 240633Z 11006KT 22/14 A2993 RMK A01 T02160138  RH  061%=      5-min Rain = 0
KNH1 240634Z 11005KT 22/14 A2993 RMK A01 T02170136  RH  060%=      5-min Rain = 0
KNH1 240635Z 11005KT 22/14 A2993 RMK A01 T02170135  RH  060%=      5-min Rain = 0
KNH1 240636Z 11005KT 22/13 A2993 RMK A01 T02160134  RH  059%=      5-min Rain = 0
KNH1 240637Z 11006KT 22/13 A2992 RMK A01 T02150132  RH  059%=      5-min Rain = 0
KNH1 240638Z 11007KT 21/13 A2992 RMK A01 T02130132  RH  060%=      5-min Rain = 0
KNH1 240639Z 10006KT 21/13 A2992 RMK A01 T02120132  RH  060%=      5-min Rain = 0
KNH1 240640Z 11005KT 21/14 A2992 RMK A01 T02110135  RH  061%=      5-min Rain = 0
KNH1 240641Z 10005KT 21/14 A2992 RMK A01 T02120137  RH  062%=      5-min Rain = 0
KNH1 240642Z 10004KT 21/14 A2992 RMK A01 T02130138  RH  062%=      5-min Rain = 0
KNH1 240643Z 10005KT 21/14 A2992 RMK A01 T02130137  RH  062%=      5-min Rain = 0
KNH1 240644Z 10005KT 21/14 A2992 RMK A01 T02120136  RH  062%=      5-min Rain = 0
KNH1 240645Z 10005KT 21/14 A2992 RMK A01 T02110138  RH  063%=      5-min Rain = 0
KNH1 240646Z 10005KT 21/14 A2992 RMK A01 T02110140  RH  064%=      5-min Rain = 0
KNH1 240647Z 10005KT 21/14 A2992 RMK A01 T02110140  RH  064%=      5-min Rain = 0
KNH1 240648Z 10005KT 21/14 A2992 RMK A01 T02110140  RH  064%=      5-min Rain = 0
KNH1 240649Z 10005KT 21/14 A2992 RMK A01 T02110140  RH  064%=      5-min Rain = 0
KNH1 240650Z 10005KT 21/14 A2992 RMK A01 T02120140  RH  064%=      5-min Rain = 0
KNH1 240651Z 10005KT 21/14 A2992 RMK A01 T02110140  RH  064%=      5-min Rain = 0
KNH1 240652Z 10005KT 21/14 A2992 RMK A01 T02110140  RH  064%=      5-min Rain = 0
KNH1 240653Z 10007KT 21/14 A2992 RMK A01 T02110140  RH  064%=      5-min Rain = 0
KNH1 240654Z 10007KT 21/14 A2992 RMK A01 T02110139  RH  064%=      5-min Rain = 0
KNH1 240655Z 10008KT 21/14 A2992 RMK A01 T02110140  RH  064%=      5-min Rain = 0
KNH1 240656Z 10008KT 21/14 A2992 RMK A01 T02110141  RH  064%=      5-min Rain = 0
KNH1 240657Z 10006KT 21/14 A2992 RMK A01 T02110141  RH  064%=      5-min Rain = 0
KNH1 240658Z 09006KT 21/14 A2992 RMK A01 T02110141  RH  064%=      5-min Rain = 0
KNH1 240659Z 10006KT 21/14 A2992 RMK A01 T02110141  RH  064%=      5-min Rain = 0
KNH1 240700Z 10007KT 21/14 A2992 RMK A01 T02100143  RH  065%=      5-min Rain = 0
KNH1 240701Z 10011G17KT 21/15 A2992 RMK A01 T02100147  RH  067%=      5-min Rain = 0
KNH1 240702Z 10012KT 21/15 A2992 RMK A01 T02130151  RH  068%=      5-min Rain = 0
KNH1 240703Z 10012KT 22/15 A2992 RMK A01 T02150151  RH  067%=      5-min Rain = 0
KNH1 240704Z 10013KT 22/15 A2992 RMK A01 T02170151  RH  066%=      5-min Rain = 0
KNH1 240705Z 10010KT 22/15 A2992 RMK A01 T02170151  RH  066%=      5-min Rain = 0
KNH1 240706Z 11009KT 22/15 A2992 RMK A01 T02170150  RH  066%=      5-min Rain = 0
KNH1 240707Z 10007KT 22/15 A2992 RMK A01 T02170150  RH  066%=      5-min Rain = 0
KNH1 240708Z 11008KT 22/15 A2992 RMK A01 T02170150  RH  066%=      5-min Rain = 0
KNH1 240709Z 11009KT 22/15 A2992 RMK A01 T02170154  RH  067%=      5-min Rain = 0
KNH1 240710Z 10009KT 22/15 A2992 RMK A01 T02170154  RH  067%=      5-min Rain = 0
KNH1 240711Z 10010KT 22/15 A2992 RMK A01 T02170153  RH  067%=      5-min Rain = 0
KNH1 240712Z 11010KT 22/15 A2992 RMK A01 T02170154  RH  067%=      5-min Rain = 0
KNH1 240713Z 10010KT 22/15 A2992 RMK A01 T02160152  RH  067%=      5-min Rain = 0
KNH1 240714Z 10008KT 22/15 A2992 RMK A01 T02160152  RH  067%=      5-min Rain = 0
KNH1 240715Z 10008KT 22/15 A2992 RMK A01 T02150151  RH  067%=      5-min Rain = 0
KNH1 240716Z 10008KT 21/15 A2992 RMK A01 T02130150  RH  067%=      5-min Rain = 0
KNH1 240717Z 10006KT 21/15 A2992 RMK A01 T02130151  RH  068%=      5-min Rain = 0
KNH1 240718Z 09007KT 21/15 A2992 RMK A01 T02120150  RH  068%=      5-min Rain = 0
KNH1 240719Z 10007KT 21/15 A2993 RMK A01 T02110150  RH  068%=      5-min Rain = 0
KNH1 240720Z 09007KT 21/15 A2993 RMK A01 T02110150  RH  068%=      5-min Rain = 0
KNH1 240721Z 09008KT 21/15 A2993 RMK A01 T02100150  RH  068%=      5-min Rain = 0
KNH1 240722Z 09008KT 21/15 A2993 RMK A01 T02100151  RH  069%=      5-min Rain = 0
KNH1 240723Z 09009KT 21/15 A2993 RMK A01 T02100152  RH  069%=      5-min Rain = 0
KNH1 240724Z 09008KT 21/15 A2993 RMK A01 T02100152  RH  069%=      5-min Rain = 0
KNH1 240725Z 09009KT 21/15 A2993 RMK A01 T02110151  RH  069%=      5-min Rain = 0
KNH1 240726Z 09006KT 21/15 A2993 RMK A01 T02110151  RH  069%=      5-min Rain = 0
KNH1 240727Z 09009KT 21/15 A2993 RMK A01 T02110152  RH  069%=      5-min Rain = 0
KNH1 240728Z 09009KT 21/16 A2993 RMK A01 T02110155  RH  070%=      5-min Rain = 0
KNH1 240729Z 09008KT 21/16 A2993 RMK A01 T02120155  RH  070%=      5-min Rain = 0
KNH1 240730Z 09008KT 21/15 A2993 RMK A01 T02110154  RH  070%=      5-min Rain = 0
KNH1 240731Z 09008KT 21/15 A2993 RMK A01 T02110154  RH  070%=      5-min Rain = 0
KNH1 240732Z 09007KT 21/15 A2993 RMK A01 T02110154  RH  070%=      5-min Rain = 0
KNH1 240733Z 08006KT 21/15 A2994 RMK A01 T02090154  RH  070%=      5-min Rain = 0
KNH1 240734Z 08006KT 21/15 A2994 RMK A01 T02080154  RH  071%=      5-min Rain = 0
KNH1 240735Z 08006KT 21/16 A2994 RMK A01 T02080155  RH  072%=      5-min Rain = 0
KNH1 240736Z 08006KT 21/16 A2994 RMK A01 T02070156  RH  072%=      5-min Rain = 0
KNH1 240737Z 09007KT 21/16 A2994 RMK A01 T02070157  RH  073%=      5-min Rain = 0
KNH1 240738Z 09008KT 21/16 A2994 RMK A01 T02080159  RH  074%=      5-min Rain = 0
KNH1 240739Z 09007KT 21/16 A2994 RMK A01 T02070159  RH  074%=      5-min Rain = 0
KNH1 240740Z 09008KT 21/16 A2994 RMK A01 T02080159  RH  074%=      5-min Rain = 0
KNH1 240741Z 09008KT 21/16 A2994 RMK A01 T02080159  RH  074%=      5-min Rain = 0
KNH1 240742Z 09008KT 21/16 A2994 RMK A01 T02080159  RH  074%=      5-min Rain = 0
KNH1 240743Z 08008KT 21/16 A2994 RMK A01 T02080160  RH  074%=      5-min Rain = 0
KNH1 240744Z 09008KT 21/16 A2994 RMK A01 T02080160  RH  074%=      5-min Rain = 0
KNH1 240745Z 09008KT 21/16 A2994 RMK A01 T02080160  RH  074%=      5-min Rain = 0
KNH1 240746Z 09007KT 21/16 A2994 RMK A01 T02090160  RH  073%=      5-min Rain = 0
KNH1 240747Z 09008KT 21/16 A2994 RMK A01 T02080159  RH  073%=      5-min Rain = 0
KNH1 240748Z 09007KT 21/16 A2994 RMK A01 T02080159  RH  074%=      5-min Rain = 0
KNH1 240749Z 09007KT 21/16 A2994 RMK A01 T02070159  RH  074%=      5-min Rain = 0
KNH1 240750Z 09007KT 21/16 A2994 RMK A01 T02070159  RH  074%=      5-min Rain = 0
KNH1 240751Z 09008KT 21/16 A2995 RMK A01 T02070159  RH  074%=      5-min Rain = 0
KNH1 240752Z 09008KT 21/16 A2995 RMK A01 T02070159  RH  074%=      5-min Rain = 0
KNH1 240753Z 09007KT 21/16 A2995 RMK A01 T02070159  RH  074%=      5-min Rain = 0
KNH1 240754Z 08007KT 21/16 A2995 RMK A01 T02070159  RH  074%=      5-min Rain = 0
KNH1 240755Z 08007KT 21/16 A2995 RMK A01 T02070159  RH  074%=      5-min Rain = 0
KNH1 240756Z 07008KT 21/16 A2995 RMK A01 T02070159  RH  074%=      5-min Rain = 0
KNH1 240757Z 08008KT 21/16 A2995 RMK A01 T02070159  RH  074%=      5-min Rain = 0
KNH1 240758Z 07009KT 21/16 A2995 RMK A01 T02070159  RH  074%=      5-min Rain = 0
KNH1 240759Z 07009KT 21/16 A2995 RMK A01 T02060158  RH  074%=      5-min Rain = 0
KNH1 240800Z 07008KT 21/16 A2995 RMK A01 T02050157  RH  074%=      5-min Rain = 0
KNH1 240801Z 07008KT 21/16 A2995 RMK A01 T02050157  RH  074%=      5-min Rain = 0
KNH1 240802Z 07007KT 20/16 A2995 RMK A01 T02040156  RH  074%=      5-min Rain = 0
KNH1 240803Z 07006KT 20/16 A2995 RMK A01 T02030155  RH  074%=      5-min Rain = 0
KNH1 240804Z 08007KT 20/16 A2995 RMK A01 T02020155  RH  074%=      5-min Rain = 0
KNH1 240805Z 07007KT 20/16 A2995 RMK A01 T02010155  RH  075%=      5-min Rain = 0
KNH1 240806Z 07007KT 20/16 A2995 RMK A01 T02010156  RH  075%=      5-min Rain = 0
KNH1 240807Z 07007KT 20/16 A2995 RMK A01 T02010156  RH  075%=      5-min Rain = 0
KNH1 240808Z 06006KT 20/16 A2995 RMK A01 T02010156  RH  075%=      5-min Rain = 0
KNH1 240809Z 06006KT 20/16 A2995 RMK A01 T02010156  RH  075%=      5-min Rain = 0
KNH1 240810Z 06006KT 20/16 A2995 RMK A01 T02000156  RH  076%=      5-min Rain = 0
KNH1 240811Z 06006KT 20/16 A2995 RMK A01 T01990156  RH  076%=      5-min Rain = 0
KNH1 240812Z 07005KT 20/16 A2995 RMK A01 T01990156  RH  076%=      5-min Rain = 0
KNH1 240813Z 07006KT 20/16 A2995 RMK A01 T01990156  RH  076%=      5-min Rain = 0
KNH1 240814Z 07005KT 20/16 A2995 RMK A01 T01990156  RH  076%=      5-min Rain = 0
KNH1 240815Z 07006KT 20/16 A2995 RMK A01 T01980157  RH  077%=      5-min Rain = 0
KNH1 240816Z 07006KT 20/16 A2995 RMK A01 T01980156  RH  077%=      5-min Rain = 0
KNH1 240817Z 07006KT 20/16 A2995 RMK A01 T01980156  RH  077%=      5-min Rain = 0
KNH1 240818Z 07005KT 20/16 A2995 RMK A01 T01970156  RH  077%=      5-min Rain = 0
KNH1 240819Z 07006KT 20/16 A2995 RMK A01 T01970156  RH  077%=      5-min Rain = 0
KNH1 240820Z 07006KT 20/16 A2995 RMK A01 T01960156  RH  078%=      5-min Rain = 0
KNH1 240821Z 07006KT 20/16 A2995 RMK A01 T01960157  RH  078%=      5-min Rain = 0
KNH1 240822Z 07007KT 20/16 A2995 RMK A01 T01960157  RH  078%=      5-min Rain = 0
KNH1 240823Z 07006KT 20/16 A2995 RMK A01 T01960157  RH  078%=      5-min Rain = 0
KNH1 240824Z 07007KT 20/16 A2995 RMK A01 T01960157  RH  078%=      5-min Rain = 0
KNH1 240825Z 07007KT 20/16 A2994 RMK A01 T01960158  RH  079%=      5-min Rain = 0
KNH1 240826Z 06006KT 20/16 A2994 RMK A01 T01960158  RH  079%=      5-min Rain = 0
KNH1 240827Z 06006KT 20/16 A2994 RMK A01 T01950158  RH  079%=      5-min Rain = 0
KNH1 240828Z 07006KT 20/16 A2994 RMK A01 T01950158  RH  079%=      5-min Rain = 0
KNH1 240829Z 07007KT 20/16 A2994 RMK A01 T01950159  RH  079%=      5-min Rain = 0
KNH1 240830Z 07007KT 20/16 A2994 RMK A01 T01950159  RH  080%=      5-min Rain = 0
KNH1 240831Z 07006KT 20/16 A2994 RMK A01 T01950159  RH  080%=      5-min Rain = 0
KNH1 240832Z 08007KT 20/16 A2994 RMK A01 T01950159  RH  080%=      5-min Rain = 0
KNH1 240833Z 07006KT 20/16 A2994 RMK A01 T01950160  RH  080%=      5-min Rain = 0
KNH1 240834Z 07008KT 20/16 A2994 RMK A01 T01950160  RH  080%=      5-min Rain = 0
KNH1 240835Z 07008KT 20/16 A2995 RMK A01 T01960162  RH  081%=      5-min Rain = 0
KNH1 240836Z 08008KT 20/16 A2995 RMK A01 T01970163  RH  081%=      5-min Rain = 0
KNH1 240837Z 08009KT 20/17 A2995 RMK A01 T01980165  RH  081%=      5-min Rain = 0
KNH1 240838Z 07010KT 20/17 A2995 RMK A01 T02000166  RH  081%=      5-min Rain = 0
KNH1 240839Z 06009KT 20/17 A2995 RMK A01 T02010166  RH  080%=      5-min Rain = 0
KNH1 240840Z 06008KT 20/17 A2995 RMK A01 T02020165  RH  079%=      5-min Rain = 0
KNH1 240841Z 06010KT 20/17 A2995 RMK A01 T02010165  RH  080%=      5-min Rain = 0
KNH1 240842Z 06009KT 20/17 A2995 RMK A01 T02000166  RH  081%=      5-min Rain = 0
KNH1 240843Z 06010KT 20/17 A2995 RMK A01 T02000167  RH  081%=      5-min Rain = 0
KNH1 240844Z 07009KT 20/17 A2995 RMK A01 T02000167  RH  082%=      5-min Rain = 0
KNH1 240845Z 07008KT 20/17 A2995 RMK A01 T01990167  RH  082%=      5-min Rain = 0
KNH1 240846Z 07009KT 20/17 A2995 RMK A01 T01990168  RH  082%=      5-min Rain = 0
KNH1 240847Z 07008KT 20/17 A2995 RMK A01 T01990168  RH  082%=      5-min Rain = 0
KNH1 240848Z 07008KT 20/17 A2995 RMK A01 T01990168  RH  082%=      5-min Rain = 0
KNH1 240849Z 08009KT 20/17 A2995 RMK A01 T01990168  RH  082%=      5-min Rain = 0
KNH1 240850Z 08008KT 20/17 A2995 RMK A01 T01990168  RH  083%=      5-min Rain = 0
KNH1 240851Z 08008KT 20/17 A2995 RMK A01 T01990168  RH  082%=      5-min Rain = 0
KNH1 240852Z 08009KT 20/17 A2995 RMK A01 T01990168  RH  082%=      5-min Rain = 0
KNH1 240853Z 07008KT 20/17 A2995 RMK A01 T01990169  RH  083%=      5-min Rain = 0
KNH1 240854Z 07008KT 20/17 A2995 RMK A01 T01980168  RH  083%=      5-min Rain = 0
KNH1 240855Z 07008KT 20/17 A2996 RMK A01 T01980169  RH  083%=      5-min Rain = 0
KNH1 240856Z 07008KT 20/17 A2996 RMK A01 T01980169  RH  083%=      5-min Rain = 0
KNH1 240857Z 07008KT 20/17 A2996 RMK A01 T01980169  RH  083%=      5-min Rain = 0
KNH1 240858Z 08009KT 20/17 A2996 RMK A01 T01980169  RH  083%=      5-min Rain = 0
KNH1 240859Z 08007KT 20/17 A2996 RMK A01 T01980169  RH  083%=      5-min Rain = 0
KNH1 240900Z 08008KT 20/17 A2996 RMK A01 T01980169  RH  083%=      5-min Rain = 0
KNH1 240901Z 08008KT 20/17 A2996 RMK A01 T01980169  RH  083%=      5-min Rain = 0
KNH1 240902Z 08009KT 20/17 A2996 RMK A01 T01980169  RH  083%=      5-min Rain = 0
KNH1 240903Z 07009KT 20/17 A2996 RMK A01 T01980170  RH  084%=      5-min Rain = 0
KNH1 240904Z 08009KT 20/17 A2996 RMK A01 T01980170  RH  084%=      5-min Rain = 0
KNH1 240905Z 08007KT 20/17 A2996 RMK A01 T01980170  RH  084%=      5-min Rain = 0
KNH1 240906Z 07007KT 20/17 A2996 RMK A01 T01980169  RH  084%=      5-min Rain = 0
KNH1 240907Z 08007KT 20/17 A2996 RMK A01 T01980169  RH  084%=      5-min Rain = 0
KNH1 240908Z 07007KT 20/17 A2996 RMK A01 T01970170  RH  084%=      5-min Rain = 0
KNH1 240909Z 07007KT 20/17 A2996 RMK A01 T01970170  RH  084%=      5-min Rain = 0
KNH1 240910Z 07010KT 20/17 A2996 RMK A01 T01970170  RH  084%=      5-min Rain = 0
KNH1 240911Z 07008KT 20/17 A2996 RMK A01 T01970170  RH  084%=      5-min Rain = 0
KNH1 240912Z 08008KT 20/17 A2996 RMK A01 T01980170  RH  084%=      5-min Rain = 0
KNH1 240913Z 08008KT 20/17 A2996 RMK A01 T01980170  RH  084%=      5-min Rain = 0
KNH1 240914Z 08008KT 20/17 A2996 RMK A01 T01980170  RH  084%=      5-min Rain = 0
KNH1 240915Z 08009KT 20/17 A2996 RMK A01 T01970170  RH  084%=      5-min Rain = 0
KNH1 240916Z 08009KT 20/17 A2996 RMK A01 T01980171  RH  084%=      5-min Rain = 0
KNH1 240917Z 08007KT 20/17 A2996 RMK A01 T01980171  RH  084%=      5-min Rain = 0
KNH1 240918Z 08007KT 20/17 A2996 RMK A01 T01980170  RH  084%=      5-min Rain = 0
KNH1 240919Z 08007KT 20/17 A2996 RMK A01 T01970170  RH  084%=      5-min Rain = 0
KNH1 240920Z 08007KT 20/17 A2995 RMK A01 T01970171  RH  085%=      5-min Rain = 0
KNH1 240921Z 08008KT 20/17 A2995 RMK A01 T01970171  RH  085%=      5-min Rain = 0
KNH1 240922Z 08008KT 20/17 A2995 RMK A01 T01970171  RH  085%=      5-min Rain = 0
KNH1 240923Z 08008KT 20/17 A2995 RMK A01 T01970171  RH  085%=      5-min Rain = 0
KNH1 240924Z 08008KT 20/17 A2995 RMK A01 T01970171  RH  085%=      5-min Rain = 0
KNH1 240925Z 08008KT 20/17 A2995 RMK A01 T01970170  RH  085%=      5-min Rain = 0
KNH1 240926Z 08009KT 20/17 A2995 RMK A01 T01970171  RH  085%=      5-min Rain = 0
KNH1 240927Z 07008KT 20/17 A2995 RMK A01 T01970171  RH  085%=      5-min Rain = 0
KNH1 240928Z 08008KT 20/17 A2995 RMK A01 T01970171  RH  085%=      5-min Rain = 0
KNH1 240929Z 08007KT 20/17 A2995 RMK A01 T01970171  RH  085%=      5-min Rain = 0
KNH1 240930Z 08007KT 20/17 A2995 RMK A01 T01970170  RH  085%=      5-min Rain = 0
KNH1 240931Z 08008KT 20/17 A2995 RMK A01 T01960171  RH  085%=      5-min Rain = 0
KNH1 240932Z 08008KT 20/17 A2995 RMK A01 T01960171  RH  085%=      5-min Rain = 0
KNH1 240933Z 08007KT 20/17 A2995 RMK A01 T01970171  RH  085%=      5-min Rain = 0
KNH1 240934Z 08007KT 20/17 A2996 RMK A01 T01970170  RH  085%=      5-min Rain = 0
KNH1 240935Z 08007KT 20/17 A2996 RMK A01 T01970171  RH  085%=      5-min Rain = 0
KNH1 240936Z 08007KT 20/17 A2996 RMK A01 T01970171  RH  085%=      5-min Rain = 0
KNH1 240937Z 08007KT 20/17 A2996 RMK A01 T01960170  RH  085%=      5-min Rain = 0
KNH1 240938Z 07007KT 20/17 A2996 RMK A01 T01960170  RH  085%=      5-min Rain = 0
KNH1 240939Z 07007KT 20/17 A2996 RMK A01 T01960170  RH  085%=      5-min Rain = 0
KNH1 240940Z 07008KT 20/17 A2996 RMK A01 T01950170  RH  085%=      5-min Rain = 0
KNH1 240941Z 07008KT 20/17 A2996 RMK A01 T01950170  RH  086%=      5-min Rain = 0
KNH1 240942Z 07008KT 20/17 A2996 RMK A01 T01950170  RH  086%=      5-min Rain = 0
KNH1 240943Z 07007KT 20/17 A2996 RMK A01 T01950170  RH  086%=      5-min Rain = 0
KNH1 240944Z 06007KT 20/17 A2996 RMK A01 T01950170  RH  086%=      5-min Rain = 0
KNH1 240945Z 07007KT 20/17 A2996 RMK A01 T01950170  RH  086%=      5-min Rain = 0
KNH1 240946Z 07008KT 20/17 A2996 RMK A01 T01950170  RH  086%=      5-min Rain = 0
KNH1 240947Z 07006KT 20/17 A2996 RMK A01 T01950170  RH  086%=      5-min Rain = 0
KNH1 240948Z 08006KT 20/17 A2996 RMK A01 T01950170  RH  086%=      5-min Rain = 0
KNH1 240949Z 08007KT 20/17 A2996 RMK A01 T01950170  RH  086%=      5-min Rain = 0
KNH1 240950Z 08009KT 19/17 A2996 RMK A01 T01940170  RH  086%=      5-min Rain = 0
KNH1 240951Z 08009KT 19/17 A2996 RMK A01 T01940170  RH  086%=      5-min Rain = 0
KNH1 240952Z 07008KT 20/17 A2996 RMK A01 T01950170  RH  086%=      5-min Rain = 0
KNH1 240953Z 07009KT 20/17 A2996 RMK A01 T01950171  RH  086%=      5-min Rain = 0
KNH1 240954Z 07009KT 20/17 A2996 RMK A01 T01950170  RH  086%=      5-min Rain = 0
KNH1 240955Z 07008KT 20/17 A2996 RMK A01 T01950171  RH  086%=      5-min Rain = 0
KNH1 240956Z 07008KT 20/17 A2996 RMK A01 T01950170  RH  086%=      5-min Rain = 0
KNH1 240957Z 07008KT 20/17 A2996 RMK A01 T01950170  RH  086%=      5-min Rain = 0
KNH1 240958Z 07009KT 20/17 A2996 RMK A01 T01950170  RH  086%=      5-min Rain = 0
KNH1 240959Z 08008KT 20/17 A2996 RMK A01 T01950170  RH  086%=      5-min Rain = 0
KNH1 241000Z 07007KT 20/17 A2996 RMK A01 T01950170  RH  086%=      5-min Rain = 0
KNH1 241001Z 07007KT 20/17 A2996 RMK A01 T01950170  RH  085%=      5-min Rain = 0
KNH1 241002Z 07008KT 20/17 A2996 RMK A01 T01950170  RH  085%=      5-min Rain = 0
KNH1 241003Z 07008KT 19/17 A2996 RMK A01 T01940170  RH  086%=      5-min Rain = 0
KNH1 241004Z 07008KT 19/17 A2996 RMK A01 T01940170  RH  086%=      5-min Rain = 0
KNH1 241005Z 08008KT 19/17 A2996 RMK A01 T01940169  RH  085%=      5-min Rain = 0
KNH1 241006Z 07008KT 19/17 A2996 RMK A01 T01940169  RH  085%=      5-min Rain = 0
KNH1 241007Z 07008KT 19/17 A2996 RMK A01 T01940169  RH  085%=      5-min Rain = 0
KNH1 241008Z 07009KT 19/17 A2996 RMK A01 T01940169  RH  085%=      5-min Rain = 0
KNH1 241009Z 08008KT 19/17 A2996 RMK A01 T01940169  RH  085%=      5-min Rain = 0
KNH1 241010Z 08009KT 20/17 A2996 RMK A01 T01950169  RH  085%=      5-min Rain = 0
KNH1 241011Z 08008KT 20/17 A2996 RMK A01 T01950169  RH  085%=      5-min Rain = 0
KNH1 241012Z 08008KT 20/17 A2996 RMK A01 T01950168  RH  084%=      5-min Rain = 0
KNH1 241013Z 08008KT 20/17 A2997 RMK A01 T01960168  RH  084%=      5-min Rain = 0
KNH1 241014Z 08008KT 20/17 A2997 RMK A01 T01960167  RH  084%=      5-min Rain = 0
KNH1 241015Z 08010KT 20/17 A2997 RMK A01 T01970167  RH  083%=      5-min Rain = 0
KNH1 241016Z 08010KT 20/17 A2997 RMK A01 T01970166  RH  083%=      5-min Rain = 0
KNH1 241017Z 08009KT 20/17 A2997 RMK A01 T01980166  RH  082%=      5-min Rain = 0
KNH1 241018Z 08009KT 20/17 A2997 RMK A01 T01980166  RH  082%=      5-min Rain = 0
KNH1 241019Z 08010KT 20/17 A2997 RMK A01 T01980165  RH  081%=      5-min Rain = 0
KNH1 241020Z 08010KT 20/17 A2997 RMK A01 T01990165  RH  081%=      5-min Rain = 0
KNH1 241021Z 08010KT 20/17 A2997 RMK A01 T02000165  RH  080%=      5-min Rain = 0
KNH1 241022Z 08010KT 20/17 A2997 RMK A01 T02000165  RH  080%=      5-min Rain = 0
KNH1 241023Z 08010KT 20/16 A2997 RMK A01 T02000164  RH  080%=      5-min Rain = 0
KNH1 241024Z 08009KT 20/16 A2997 RMK A01 T02000164  RH  080%=      5-min Rain = 0
KNH1 241025Z 08009KT 20/16 A2997 RMK A01 T02000164  RH  080%=      5-min Rain = 0
KNH1 241026Z 08008KT 20/16 A2997 RMK A01 T02000164  RH  080%=      5-min Rain = 0
KNH1 241027Z 08009KT 20/17 A2997 RMK A01 T02000165  RH  080%=      5-min Rain = 0
KNH1 241028Z 08010KT 20/17 A2997 RMK A01 T02000165  RH  080%=      5-min Rain = 0
KNH1 241029Z 08011KT 20/17 A2997 RMK A01 T02000165  RH  080%=      5-min Rain = 0
KNH1 241030Z 08010KT 20/17 A2997 RMK A01 T02000166  RH  081%=      5-min Rain = 0
KNH1 241031Z 08011KT 20/17 A2997 RMK A01 T02000166  RH  081%=      5-min Rain = 0
KNH1 241032Z 08010KT 20/17 A2997 RMK A01 T02000167  RH  081%=      5-min Rain = 0
KNH1 241033Z 08009KT 20/17 A2997 RMK A01 T02000168  RH  082%=      5-min Rain = 0
KNH1 241034Z 08010KT 20/17 A2997 RMK A01 T01990168  RH  082%=      5-min Rain = 0
KNH1 241035Z 08013KT 20/17 A2997 RMK A01 T01990170  RH  083%=      5-min Rain = 0
KNH1 241036Z 08011G18KT 20/17 A2997 RMK A01 T01990170  RH  084%=      5-min Rain = 0
KNH1 241037Z 08013KT 20/17 A2997 RMK A01 T01990171  RH  084%=      5-min Rain = 0
KNH1 241038Z 08013KT 20/17 A2997 RMK A01 T01990172  RH  084%=      5-min Rain = 0
KNH1 241039Z 08013KT 20/17 A2997 RMK A01 T01990172  RH  084%=      5-min Rain = 0
KNH1 241040Z 08012KT 20/17 A2997 RMK A01 T01990172  RH  085%=      5-min Rain = 0
KNH1 241041Z 08013KT 20/17 A2997 RMK A01 T01980172  RH  085%=      5-min Rain = 0
KNH1 241042Z 08012KT 20/17 A2997 RMK A01 T01980173  RH  085%=      5-min Rain = 0
KNH1 241043Z 08013KT 20/17 A2997 RMK A01 T01980172  RH  085%=      5-min Rain = 0
KNH1 241044Z 07011G16KT 20/17 A2997 RMK A01 T01980172  RH  085%=      5-min Rain = 0
KNH1 241045Z 08014KT 20/17 A2997 RMK A01 T01970172  RH  085%=      5-min Rain = 0
KNH1 241046Z 07011KT 20/17 A2997 RMK A01 T01970172  RH  085%=      5-min Rain = 0
KNH1 241047Z 08014KT 20/17 A2997 RMK A01 T01970172  RH  085%=      5-min Rain = 0
KNH1 241048Z 07012KT 20/17 A2997 RMK A01 T01970172  RH  085%=      5-min Rain = 0
KNH1 241049Z 07012KT 20/17 A2997 RMK A01 T01970172  RH  085%=      5-min Rain = 0
KNH1 241050Z 08013KT 20/17 A2997 RMK A01 T01970172  RH  086%=      5-min Rain = 0
KNH1 241051Z 08011KT 20/17 A2997 RMK A01 T01960172  RH  086%=      5-min Rain = 0
KNH1 241052Z 07012KT 20/17 A2997 RMK A01 T01960173  RH  086%=      5-min Rain = 0
KNH1 241053Z 08012KT 20/17 A2997 RMK A01 T01960172  RH  086%=      5-min Rain = 0
KNH1 241054Z 08011KT 20/17 A2998 RMK A01 T01960173  RH  086%=      5-min Rain = 0
KNH1 241055Z 08011G16KT 20/17 A2997 RMK A01 T01960173  RH  086%=      5-min Rain = 0
KNH1 241056Z 08012KT 20/17 A2997 RMK A01 T01960173  RH  087%=      5-min Rain = 0
KNH1 241057Z 08014KT 20/17 A2997 RMK A01 T01960173  RH  087%=      5-min Rain = 0
KNH1 241058Z 08013KT 20/17 A2997 RMK A01 T01960173  RH  087%=      5-min Rain = 0
KNH1 241059Z 08011KT 20/17 A2997 RMK A01 T01950172  RH  087%=      5-min Rain = 0
KNH1 241100Z 08012KT 20/17 A2997 RMK A01 T01950172  RH  087%=      5-min Rain = 0
KNH1 241101Z 08012KT 20/17 A2997 RMK A01 T01950172  RH  087%=      5-min Rain = 0
KNH1 241102Z 07012G20KT 20/17 A2997 RMK A01 T01950172  RH  087%=      5-min Rain = 0
KNH1 241103Z 08013G19KT 20/17 A2997 RMK A01 T01950172  RH  087%=      5-min Rain = 0
KNH1 241104Z 08010KT 20/17 A2997 RMK A01 T01950172  RH  087%=      5-min Rain = 0
KNH1 241105Z 08010KT 20/17 A2997 RMK A01 T01950172  RH  087%=      5-min Rain = 0
KNH1 241106Z 07013KT 20/17 A2997 RMK A01 T01950172  RH  087%=      5-min Rain = 0
KNH1 241107Z 08014KT 19/17 A2997 RMK A01 T01940172  RH  087%=      5-min Rain = 0
KNH1 241108Z 08011KT 20/17 A2998 RMK A01 T01950172  RH  087%=      5-min Rain = 0
KNH1 241109Z 07011KT 19/17 A2998 RMK A01 T01940171  RH  087%=      5-min Rain = 0
KNH1 241110Z 07013G18KT 19/17 A2998 RMK A01 T01940172  RH  087%=      5-min Rain = 0
KNH1 241111Z 07013G18KT 19/17 A2998 RMK A01 T01940172  RH  087%=      5-min Rain = 0
KNH1 241112Z 07014KT 20/17 A2998 RMK A01 T01950172  RH  087%=      5-min Rain = 0
KNH1 241113Z 07013KT 19/17 A2998 RMK A01 T01940171  RH  086%=      5-min Rain = 0
KNH1 241114Z 07010G15KT 19/17 A2998 RMK A01 T01940171  RH  086%=      5-min Rain = 0
KNH1 241115Z 07014KT 19/17 A2998 RMK A01 T01940171  RH  086%=      5-min Rain = 0
KNH1 241116Z 07013KT 19/17 A2998 RMK A01 T01940171  RH  087%=      5-min Rain = 0
KNH1 241117Z 07014KT 19/17 A2998 RMK A01 T01940171  RH  087%=      5-min Rain = 0
KNH1 241118Z 07012KT 19/17 A2998 RMK A01 T01940171  RH  087%=      5-min Rain = 0
KNH1 241119Z 07012KT 19/17 A2998 RMK A01 T01940171  RH  087%=      5-min Rain = 0
KNH1 241120Z 07012KT 19/17 A2998 RMK A01 T01940171  RH  087%=      5-min Rain = 0
KNH1 241121Z 07014KT 19/17 A2998 RMK A01 T01940172  RH  087%=      5-min Rain = 0
KNH1 241122Z 07012KT 19/17 A2998 RMK A01 T01930172  RH  087%=      5-min Rain = 0
KNH1 241123Z 08014G19KT 19/17 A2998 RMK A01 T01930172  RH  087%=      5-min Rain = 0
KNH1 241124Z 07013KT 19/17 A2998 RMK A01 T01930172  RH  087%=      5-min Rain = 0
KNH1 241125Z 07014G19KT 19/17 A2998 RMK A01 T01930172  RH  087%=      5-min Rain = 0
KNH1 241126Z 07013KT 19/17 A2998 RMK A01 T01930172  RH  087%=      5-min Rain = 0
KNH1 241127Z 07014KT 19/17 A2998 RMK A01 T01930172  RH  088%=      5-min Rain = 0
KNH1 241128Z 07013KT 19/17 A2998 RMK A01 T01930172  RH  088%=      5-min Rain = 0
KNH1 241129Z 07013KT 19/17 A2998 RMK A01 T01930172  RH  088%=      5-min Rain = 0
KNH1 241130Z 08012KT 19/17 A2998 RMK A01 T01930172  RH  088%=      5-min Rain = 0
KNH1 241131Z 07013KT 19/17 A2998 RMK A01 T01920171  RH  088%=      5-min Rain = 0
KNH1 241132Z 07012KT 19/17 A2998 RMK A01 T01920172  RH  088%=      5-min Rain = 0
KNH1 241133Z 07011KT 19/17 A2998 RMK A01 T01920171  RH  088%=      5-min Rain = 0
KNH1 241134Z 07011G17KT 19/17 A2998 RMK A01 T01920171  RH  088%=      5-min Rain = 0
KNH1 241135Z 07012KT 19/17 A2998 RMK A01 T01920171  RH  088%=      5-min Rain = 0
KNH1 241136Z 07011KT 19/17 A2999 RMK A01 T01920171  RH  088%=      5-min Rain = 0
KNH1 241137Z 08010KT 19/17 A2999 RMK A01 T01920171  RH  088%=      5-min Rain = 0
KNH1 241138Z 07010G15KT 19/17 A2999 RMK A01 T01920171  RH  088%=      5-min Rain = 0
KNH1 241139Z 07012KT 19/17 A2998 RMK A01 T01920171  RH  088%=      5-min Rain = 0
KNH1 241140Z 07013KT 19/17 A2998 RMK A01 T01920170  RH  088%=      5-min Rain = 0
KNH1 241141Z 07012KT 19/17 A2998 RMK A01 T01920170  RH  087%=      5-min Rain = 0
KNH1 241142Z 07009KT 19/17 A2999 RMK A01 T01920170  RH  087%=      5-min Rain = 0
KNH1 241143Z 08011KT 19/17 A2998 RMK A01 T01920170  RH  087%=      5-min Rain = 0
KNH1 241144Z 07010KT 19/17 A2998 RMK A01 T01920170  RH  087%=      5-min Rain = 0
KNH1 241145Z 07013KT 19/17 A2998 RMK A01 T01920170  RH  087%=      5-min Rain = 0
KNH1 241146Z 07011KT 19/17 A2998 RMK A01 T01920169  RH  087%=      5-min Rain = 0
KNH1 241147Z 08011KT 19/17 A2998 RMK A01 T01910168  RH  087%=      5-min Rain = 0
KNH1 241148Z 07011KT 19/17 A2998 RMK A01 T01920168  RH  086%=      5-min Rain = 0
KNH1 241149Z 07011KT 19/17 A2999 RMK A01 T01920168  RH  086%=      5-min Rain = 0
KNH1 241150Z 07012KT 19/17 A2998 RMK A01 T01920169  RH  086%=      5-min Rain = 0
KNH1 241151Z 07012KT 19/17 A2998 RMK A01 T01920169  RH  086%=      5-min Rain = 0
KNH1 241152Z 07015KT 19/17 A2998 RMK A01 T01920168  RH  086%=      5-min Rain = 0
KNH1 241153Z 08012KT 19/17 A2998 RMK A01 T01930168  RH  086%=      5-min Rain = 0
KNH1 241154Z 07011KT 19/17 A2999 RMK A01 T01920168  RH  086%=      5-min Rain = 0
KNH1 241155Z 07012KT 19/17 A2999 RMK A01 T01920168  RH  086%=      5-min Rain = 0
KNH1 241156Z 07010KT 19/17 A2999 RMK A01 T01930168  RH  086%=      5-min Rain = 0
KNH1 241157Z 08011KT 19/17 A2999 RMK A01 T01930168  RH  086%=      5-min Rain = 0
KNH1 241158Z 07011KT 19/17 A2999 RMK A01 T01930168  RH  086%=      5-min Rain = 0
KNH1 241159Z 07009KT 19/17 A2999 RMK A01 T01920168  RH  086%=      5-min Rain = 0
KNH1 241200Z 07012KT 19/17 A2999 RMK A01 T01920168  RH  086%=      5-min Rain = 0
KNH1 241201Z 07011KT 19/17 A2999 RMK A01 T01920169  RH  086%=      5-min Rain = 0
KNH1 241202Z 07011KT 19/17 A2999 RMK A01 T01920169  RH  086%=      5-min Rain = 0
KNH1 241203Z 07011KT 19/17 A2999 RMK A01 T01920169  RH  086%=      5-min Rain = 0
KNH1 241204Z 06011KT 19/17 A2999 RMK A01 T01920168  RH  086%=      5-min Rain = 0
KNH1 241205Z 07011KT 19/17 A2999 RMK A01 T01920169  RH  087%=      5-min Rain = 0
KNH1 241206Z 06011KT 19/17 A2999 RMK A01 T01920169  RH  087%=      5-min Rain = 0
KNH1 241207Z 07010KT 19/17 A2999 RMK A01 T01920169  RH  087%=      5-min Rain = 0
KNH1 241208Z 07011KT 19/17 A2999 RMK A01 T01920169  RH  087%=      5-min Rain = 0
KNH1 241209Z 07008KT 19/17 A2999 RMK A01 T01920169  RH  087%=      5-min Rain = 0
KNH1 241210Z 07009KT 19/17 A2999 RMK A01 T01910169  RH  087%=      5-min Rain = 0
KNH1 241211Z 07009KT 19/17 A2999 RMK A01 T01910169  RH  087%=      5-min Rain = 0
KNH1 241212Z 06010KT 19/17 A2999 RMK A01 T01910169  RH  087%=      5-min Rain = 0
KNH1 241213Z 07010KT 19/17 A2999 RMK A01 T01910170  RH  087%=      5-min Rain = 0
KNH1 241214Z 07012KT 19/17 A2999 RMK A01 T01910170  RH  087%=      5-min Rain = 0
KNH1 241215Z 06009KT 19/17 A30 RMK A01 T01910170  RH  087%=      5-min Rain = 0
KNH1 241216Z 06011KT 19/17 A30 RMK A01 T01910170  RH  087%=      5-min Rain = 0
KNH1 241217Z 07012KT 19/17 A30 RMK A01 T01910170  RH  088%=      5-min Rain = 0
KNH1 241218Z 07011KT 19/17 A2999 RMK A01 T01910171  RH  088%=      5-min Rain = 0
KNH1 241219Z 06009KT 19/17 A2999 RMK A01 T01910171  RH  088%=      5-min Rain = 0
KNH1 241220Z 06010KT 19/17 A2999 RMK A01 T01910170  RH  088%=      5-min Rain = 0
KNH1 241221Z 06011KT 19/17 A2999 RMK A01 T01910171  RH  088%=      5-min Rain = 0
KNH1 241222Z 07010G15KT 19/17 A2999 RMK A01 T01910170  RH  088%=      5-min Rain = 0
KNH1 241223Z 06011KT 19/17 A30 RMK A01 T01920171  RH  088%=      5-min Rain = 0
KNH1 241224Z 06008KT 19/17 A30 RMK A01 T01920171  RH  088%=      5-min Rain = 0
KNH1 241225Z 07009KT 19/17 A30 RMK A01 T01920171  RH  088%=      5-min Rain = 0
KNH1 241226Z 06010KT 19/17 A30 RMK A01 T01920171  RH  087%=      5-min Rain = 0
KNH1 241227Z 06010KT 19/17 A30 RMK A01 T01920171  RH  087%=      5-min Rain = 0
KNH1 241228Z 06010KT 19/17 A30 RMK A01 T01920171  RH  087%=      5-min Rain = 0
KNH1 241229Z 07013KT 19/17 A30 RMK A01 T01930171  RH  087%=      5-min Rain = 0
KNH1 241230Z 06013KT 19/17 A30 RMK A01 T01930171  RH  087%=      5-min Rain = 0
KNH1 241231Z 07012KT 19/17 A30 RMK A01 T01930171  RH  087%=      5-min Rain = 0
KNH1 241232Z 06010KT 19/17 A30 RMK A01 T01930171  RH  087%=      5-min Rain = 0
KNH1 241233Z 07011KT 19/17 A30 RMK A01 T01930171  RH  087%=      5-min Rain = 0
KNH1 241234Z 06010G15KT 19/17 A30 RMK A01 T01930171  RH  087%=      5-min Rain = 0
KNH1 241235Z 07010KT 19/17 A30 RMK A01 T01930171  RH  087%=      5-min Rain = 0
KNH1 241236Z 07011KT 19/17 A30 RMK A01 T01930171  RH  087%=      5-min Rain = 0
KNH1 241237Z 06010KT 19/17 A30 RMK A01 T01930171  RH  087%=      5-min Rain = 0
KNH1 241238Z 07011KT 19/17 A30 RMK A01 T01930171  RH  087%=      5-min Rain = 0
KNH1 241239Z 07011KT 19/17 A3001 RMK A01 T01940171  RH  087%=      5-min Rain = 0
KNH1 241240Z 07009G14KT 19/17 A3001 RMK A01 T01940171  RH  087%=      5-min Rain = 0
KNH1 241241Z 07010KT 19/17 A3001 RMK A01 T01940171  RH  087%=      5-min Rain = 0
KNH1 241242Z 06008KT 20/17 A3001 RMK A01 T01950172  RH  086%=      5-min Rain = 0
KNH1 241243Z 07009KT 20/17 A3001 RMK A01 T01950171  RH  086%=      5-min Rain = 0
KNH1 241244Z 06010KT 20/17 A3001 RMK A01 T01950171  RH  086%=      5-min Rain = 0
KNH1 241245Z 07011KT 20/17 A3001 RMK A01 T01950171  RH  086%=      5-min Rain = 0
KNH1 241246Z 07011KT 20/17 A3001 RMK A01 T01950171  RH  086%=      5-min Rain = 0
KNH1 241247Z 07010KT 20/17 A3001 RMK A01 T01950171  RH  086%=      5-min Rain = 0
KNH1 241248Z 07011KT 20/17 A3001 RMK A01 T01950171  RH  086%=      5-min Rain = 0
KNH1 241249Z 06009KT 20/17 A3001 RMK A01 T01950170  RH  086%=      5-min Rain = 0
KNH1 241250Z 07010KT 20/17 A3001 RMK A01 T01960170  RH  085%=      5-min Rain = 0
KNH1 241251Z 07013KT 20/17 A3001 RMK A01 T01960170  RH  085%=      5-min Rain = 0
KNH1 241252Z 08012KT 20/17 A3001 RMK A01 T01960169  RH  085%=      5-min Rain = 0
KNH1 241253Z 07010KT 20/17 A3002 RMK A01 T01960169  RH  085%=      5-min Rain = 0
KNH1 241254Z 06009KT 20/17 A3002 RMK A01 T01960170  RH  084%=      5-min Rain = 0
KNH1 241255Z 06010KT 20/17 A3002 RMK A01 T01970170  RH  085%=      5-min Rain = 0
KNH1 241256Z 07011KT 20/17 A3001 RMK A01 T01970170  RH  084%=      5-min Rain = 0
KNH1 241257Z 07011KT 20/17 A3002 RMK A01 T01970170  RH  084%=      5-min Rain = 0
KNH1 241258Z 07010KT 20/17 A3002 RMK A01 T01970170  RH  084%=      5-min Rain = 0
KNH1 241259Z 06010KT 20/17 A3002 RMK A01 T01970170  RH  084%=      5-min Rain = 0
KNH1 241300Z 07008KT 20/17 A3002 RMK A01 T01980170  RH  084%=      5-min Rain = 0
KNH1 241301Z 07009KT 20/17 A3002 RMK A01 T01990170  RH  084%=      5-min Rain = 0
KNH1 241302Z 07012KT 20/17 A3002 RMK A01 T01990170  RH  083%=      5-min Rain = 0
KNH1 241303Z 06011KT 20/17 A3002 RMK A01 T02000170  RH  083%=      5-min Rain = 0
KNH1 241304Z 07011KT 20/17 A3002 RMK A01 T01990170  RH  083%=      5-min Rain = 0
KNH1 241305Z 07010KT 20/17 A3002 RMK A01 T01990170  RH  083%=      5-min Rain = 0
KNH1 241306Z 07014KT 20/17 A3002 RMK A01 T02000170  RH  083%=      5-min Rain = 0
KNH1 241307Z 06012KT 20/17 A3002 RMK A01 T02000169  RH  082%=      5-min Rain = 0
KNH1 241308Z 07009KT 20/17 A3002 RMK A01 T02010170  RH  082%=      5-min Rain = 0
KNH1 241309Z 07009KT 20/17 A3002 RMK A01 T02010170  RH  082%=      5-min Rain = 0
KNH1 241310Z 07011KT 20/17 A3002 RMK A01 T02020170  RH  082%=      5-min Rain = 0
KNH1 241311Z 07011KT 20/17 A3002 RMK A01 T02020169  RH  081%=      5-min Rain = 0
KNH1 241312Z 07011KT 20/17 A3002 RMK A01 T02030170  RH  081%=      5-min Rain = 0
KNH1 241313Z 07011G16KT 20/17 A3003 RMK A01 T02030170  RH  081%=      5-min Rain = 0
KNH1 241314Z 08012G17KT 20/17 A3003 RMK A01 T02040170  RH  081%=      5-min Rain = 0
KNH1 241315Z 07014KT 20/17 A3002 RMK A01 T02040169  RH  080%=      5-min Rain = 0
KNH1 241316Z 08012KT 20/17 A3003 RMK A01 T02030169  RH  080%=      5-min Rain = 0
KNH1 241317Z 07012G17KT 20/17 A3003 RMK A01 T02030169  RH  081%=      5-min Rain = 0
KNH1 241318Z 08011KT 20/17 A3003 RMK A01 T02040169  RH  080%=      5-min Rain = 0
KNH1 241319Z 07012KT 20/17 A3003 RMK A01 T02040169  RH  080%=      5-min Rain = 0
KNH1 241320Z 08009KT 21/17 A3003 RMK A01 T02050169  RH  080%=      5-min Rain = 0
KNH1 241321Z 08015KT 21/17 A3003 RMK A01 T02050169  RH  079%=      5-min Rain = 0
KNH1 241322Z 08013G18KT 21/17 A3003 RMK A01 T02050169  RH  079%=      5-min Rain = 0
KNH1 241323Z 09014KT 21/17 A3003 RMK A01 T02050169  RH  080%=      5-min Rain = 0
KNH1 241324Z 08011KT 21/17 A3003 RMK A01 T02050169  RH  080%=      5-min Rain = 0
KNH1 241325Z 08010KT 21/17 A3003 RMK A01 T02060169  RH  079%=      5-min Rain = 0
KNH1 241326Z 08012G17KT 21/17 A3003 RMK A01 T02080170  RH  079%=      5-min Rain = 0
KNH1 241327Z 08013KT 21/17 A3003 RMK A01 T02080169  RH  078%=      5-min Rain = 0
KNH1 241328Z 08013KT 21/17 A3003 RMK A01 T02080169  RH  079%=      5-min Rain = 0
KNH1 241329Z 08014KT 21/17 A3003 RMK A01 T02080170  RH  079%=      5-min Rain = 0
KNH1 241330Z 08013KT 21/17 A3003 RMK A01 T02070169  RH  079%=      5-min Rain = 0
KNH1 241331Z 09012KT 21/17 A3003 RMK A01 T02060169  RH  079%=      5-min Rain = 0
KNH1 241332Z 09012KT 21/17 A3003 RMK A01 T02070169  RH  079%=      5-min Rain = 0
KNH1 241333Z 08012KT 21/17 A3003 RMK A01 T02070169  RH  079%=      5-min Rain = 0
KNH1 241334Z 07012KT 21/17 A3003 RMK A01 T02080170  RH  078%=      5-min Rain = 0
KNH1 241335Z 08012KT 21/17 A3003 RMK A01 T02090170  RH  078%=      5-min Rain = 0
KNH1 241336Z 08012G17KT 21/17 A3003 RMK A01 T02090170  RH  078%=      5-min Rain = 0
KNH1 241337Z 09013KT 21/17 A3003 RMK A01 T02100170  RH  078%=      5-min Rain = 0
KNH1 241338Z 08013KT 21/17 A3003 RMK A01 T02090170  RH  078%=      5-min Rain = 0
KNH1 241339Z 08015KT 21/17 A3003 RMK A01 T02090170  RH  078%=      5-min Rain = 0
KNH1 241340Z 08013G18KT 21/17 A3003 RMK A01 T02080169  RH  079%=      5-min Rain = 0
KNH1 241341Z 08013KT 21/17 A3003 RMK A01 T02080170  RH  079%=      5-min Rain = 0
KNH1 241342Z 08013KT 21/17 A3003 RMK A01 T02080169  RH  078%=      5-min Rain = 0
KNH1 241343Z 07010KT 21/17 A3003 RMK A01 T02080170  RH  079%=      5-min Rain = 0
KNH1 241344Z 07012KT 21/17 A3003 RMK A01 T02090171  RH  079%=      5-min Rain = 0
KNH1 241345Z 07013KT 21/17 A3003 RMK A01 T02090170  RH  078%=      5-min Rain = 0
KNH1 241346Z 07012KT 21/17 A3003 RMK A01 T02090170  RH  078%=      5-min Rain = 0
KNH1 241347Z 07012KT 21/17 A3003 RMK A01 T02100171  RH  078%=      5-min Rain = 0
KNH1 241348Z 08009KT 21/17 A3003 RMK A01 T02110172  RH  078%=      5-min Rain = 0
KNH1 241349Z 07009G15KT 21/17 A3003 RMK A01 T02120173  RH  078%=      5-min Rain = 0
KNH1 241350Z 08012KT 21/17 A3003 RMK A01 T02130172  RH  077%=      5-min Rain = 0
KNH1 241351Z 07012KT 21/17 A3003 RMK A01 T02110171  RH  078%=      5-min Rain = 0
KNH1 241352Z 06011KT 21/17 A3003 RMK A01 T02090171  RH  079%=      5-min Rain = 0
KNH1 241353Z 07012KT 21/17 A3003 RMK A01 T02080171  RH  080%=      5-min Rain = 0
KNH1 241354Z 07014KT 21/17 A3003 RMK A01 T02090172  RH  079%=      5-min Rain = 0
KNH1 241355Z 07013KT 21/17 A3003 RMK A01 T02100171  RH  078%=      5-min Rain = 0
KNH1 241356Z 08011KT 21/17 A3003 RMK A01 T02110172  RH  078%=      5-min Rain = 0
KNH1 241357Z 08012G17KT 21/17 A3003 RMK A01 T02110172  RH  078%=      5-min Rain = 0
KNH1 241358Z 07012KT 21/17 A3003 RMK A01 T02120172  RH  077%=      5-min Rain = 0
KNH1 241359Z 08014KT 21/17 A3003 RMK A01 T02120172  RH  078%=      5-min Rain = 0
KNH1 241400Z 08010G16KT 21/17 A3003 RMK A01 T02100171  RH  078%=      5-min Rain = 0
KNH1 241401Z 08009G17KT 21/17 A3003 RMK A01 T02110172  RH  078%=      5-min Rain = 0
KNH1 241402Z 08014KT 21/17 A3003 RMK A01 T02130172  RH  077%=      5-min Rain = 0
KNH1 241403Z 08012KT 21/17 A3003 RMK A01 T02130172  RH  077%=      5-min Rain = 0
KNH1 241404Z 08011KT 21/17 A3003 RMK A01 T02140172  RH  077%=      5-min Rain = 0
KNH1 241405Z 07010KT 21/17 A3003 RMK A01 T02140173  RH  077%=      5-min Rain = 0
KNH1 241406Z 07013KT 21/17 A3003 RMK A01 T02140173  RH  077%=      5-min Rain = 0
KNH1 241407Z 07014KT 21/17 A3003 RMK A01 T02130172  RH  078%=      5-min Rain = 0
KNH1 241408Z 07012KT 21/17 A3003 RMK A01 T02120171  RH  078%=      5-min Rain = 0
KNH1 241409Z 08011KT 21/17 A3003 RMK A01 T02140172  RH  077%=      5-min Rain = 0
KNH1 241410Z 07011KT 22/17 A3003 RMK A01 T02150173  RH  077%=      5-min Rain = 0
KNH1 241411Z 08012KT 22/17 A3003 RMK A01 T02170173  RH  076%=      5-min Rain = 0
KNH1 241412Z 07013KT 22/17 A3003 RMK A01 T02170172  RH  076%=      5-min Rain = 0
KNH1 241413Z 06011KT 22/17 A3003 RMK A01 T02160172  RH  076%=      5-min Rain = 0
KNH1 241414Z 07014KT 22/17 A3003 RMK A01 T02150172  RH  076%=      5-min Rain = 0
KNH1 241415Z 08015KT 22/17 A3003 RMK A01 T02150171  RH  076%=      5-min Rain = 0
KNH1 241416Z 07014KT 22/17 A3003 RMK A01 T02150171  RH  076%=      5-min Rain = 0
KNH1 241417Z 07012KT 22/17 A3003 RMK A01 T02160171  RH  076%=      5-min Rain = 0
KNH1 241418Z 08012KT 22/17 A3003 RMK A01 T02160171  RH  076%=      5-min Rain = 0
KNH1 241419Z 07010KT 22/17 A3003 RMK A01 T02170172  RH  076%=      5-min Rain = 0
KNH1 241420Z 09012KT 22/17 A3003 RMK A01 T02180172  RH  075%=      5-min Rain = 0
KNH1 241421Z 07014KT 22/17 A3003 RMK A01 T02200172  RH  074%=      5-min Rain = 0
KNH1 241422Z 07013KT 22/17 A3003 RMK A01 T02200172  RH  074%=      5-min Rain = 0
KNH1 241423Z 07013KT 22/17 A3003 RMK A01 T02200172  RH  074%=      5-min Rain = 0
KNH1 241424Z 07013KT 22/17 A3004 RMK A01 T02170171  RH  075%=      5-min Rain = 0
KNH1 241425Z 07013KT 22/17 A3003 RMK A01 T02160171  RH  076%=      5-min Rain = 0
KNH1 241426Z 08014KT 22/17 A3004 RMK A01 T02190172  RH  075%=      5-min Rain = 0
KNH1 241427Z 08013KT 22/17 A3004 RMK A01 T02200171  RH  074%=      5-min Rain = 0
KNH1 241428Z 08014G19KT 22/17 A3004 RMK A01 T02200171  RH  074%=      5-min Rain = 0
KNH1 241429Z 07014KT 22/17 A3004 RMK A01 T02210171  RH  074%=      5-min Rain = 0
KNH1 241430Z 07013KT 22/17 A3004 RMK A01 T02200171  RH  074%=      5-min Rain = 0
KNH1 241431Z 08012KT 22/17 A3004 RMK A01 T02200172  RH  074%=      5-min Rain = 0
KNH1 241432Z 08012KT 22/17 A3004 RMK A01 T02230172  RH  073%=      5-min Rain = 0
KNH1 241433Z 09012KT 22/17 A3004 RMK A01 T02220171  RH  073%=      5-min Rain = 0
KNH1 241434Z 07013KT 22/17 A3004 RMK A01 T02220172  RH  073%=      5-min Rain = 0
KNH1 241435Z 08013KT 22/17 A3004 RMK A01 T02210171  RH  073%=      5-min Rain = 0
KNH1 241436Z 08012KT 22/17 A3004 RMK A01 T02200170  RH  074%=      5-min Rain = 0
KNH1 241437Z 07008KT 22/17 A3004 RMK A01 T02180171  RH  074%=      5-min Rain = 0
KNH1 241438Z 06013KT 22/17 A3004 RMK A01 T02190170  RH  074%=      5-min Rain = 0
KNH1 241439Z 07013G18KT 22/17 A3004 RMK A01 T02200170  RH  073%=      5-min Rain = 0
KNH1 241440Z 07013G19KT 22/17 A3004 RMK A01 T02240171  RH  072%=      5-min Rain = 0
KNH1 241441Z 07016KT 23/17 A3003 RMK A01 T02270170  RH  070%=      5-min Rain = 0
KNH1 241442Z 07013KT 23/17 A3004 RMK A01 T02270171  RH  071%=      5-min Rain = 0
KNH1 241443Z 07012G18KT 23/17 A3004 RMK A01 T02270171  RH  070%=      5-min Rain = 0
KNH1 241444Z 08014KT 23/17 A3004 RMK A01 T02270170  RH  070%=      5-min Rain = 0
KNH1 241445Z 08012G17KT 23/17 A3004 RMK A01 T02260170  RH  071%=      5-min Rain = 0
KNH1 241446Z 08013KT 23/17 A3004 RMK A01 T02250171  RH  071%=      5-min Rain = 0
KNH1 241447Z 08010KT 23/17 A3004 RMK A01 T02250171  RH  072%=      5-min Rain = 0
KNH1 241448Z 08010KT 23/17 A3004 RMK A01 T02270172  RH  071%=      5-min Rain = 0
KNH1 241449Z 09012KT 23/17 A3004 RMK A01 T02280171  RH  070%=      5-min Rain = 0
KNH1 241450Z 08010KT 23/17 A3004 RMK A01 T02300170  RH  069%=      5-min Rain = 0
KNH1 241451Z 08013KT 23/17 A3004 RMK A01 T02310171  RH  069%=      5-min Rain = 0
KNH1 241452Z 08010KT 23/17 A3004 RMK A01 T02300171  RH  069%=      5-min Rain = 0
KNH1 241453Z 08011G17KT 23/17 A3004 RMK A01 T02300170  RH  069%=      5-min Rain = 0
KNH1 241454Z 08014G20KT 23/17 A3004 RMK A01 T02300169  RH  069%=      5-min Rain = 0
KNH1 241455Z 08013KT 23/17 A3004 RMK A01 T02300169  RH  069%=      5-min Rain = 0
KNH1 241456Z 08011KT 23/17 A3004 RMK A01 T02290170  RH  069%=      5-min Rain = 0
KNH1 241457Z 07013KT 23/17 A3004 RMK A01 T02300170  RH  069%=      5-min Rain = 0
KNH1 241458Z 07012KT 23/17 A3004 RMK A01 T02280169  RH  070%=      5-min Rain = 0
KNH1 241459Z 07012KT 23/17 A3004 RMK A01 T02280170  RH  070%=      5-min Rain = 0
KNH1 241500Z 07012G17KT 23/17 A3004 RMK A01 T02300169  RH  069%=      5-min Rain = 0
KNH1 241501Z 07013G19KT 23/17 A3004 RMK A01 T02310170  RH  068%=      5-min Rain = 0
KNH1 241502Z 08011G17KT 23/17 A3004 RMK A01 T02330171  RH  068%=      5-min Rain = 0
KNH1 241503Z 09012KT 24/17 A3004 RMK A01 T02360170  RH  066%=      5-min Rain = 0
KNH1 241504Z 09013KT 24/17 A3004 RMK A01 T02350169  RH  067%=      5-min Rain = 0
KNH1 241505Z 09011G16KT 24/17 A3004 RMK A01 T02350170  RH  067%=      5-min Rain = 0
KNH1 241506Z 09013G18KT 24/17 A3004 RMK A01 T02380170  RH  066%=      5-min Rain = 0
KNH1 241507Z 09013KT 24/17 A3004 RMK A01 T02360168  RH  066%=      5-min Rain = 0
KNH1 241508Z 09014KT 23/17 A3004 RMK A01 T02340167  RH  066%=      5-min Rain = 0
KNH1 241509Z 09011KT 23/17 A3004 RMK A01 T02340168  RH  067%=      5-min Rain = 0
KNH1 241510Z 09011KT 24/17 A3004 RMK A01 T02360171  RH  067%=      5-min Rain = 0
KNH1 241511Z 09011G17KT 24/17 A3004 RMK A01 T02400171  RH  065%=      5-min Rain = 0
KNH1 241512Z 10012KT 24/17 A3004 RMK A01 T02400170  RH  065%=      5-min Rain = 0
KNH1 241513Z 09012KT 24/17 A3004 RMK A01 T02390171  RH  065%=      5-min Rain = 0
KNH1 241514Z 09011KT 24/17 A3004 RMK A01 T02400169  RH  065%=      5-min Rain = 0
KNH1 241515Z 09011KT 24/17 A3004 RMK A01 T02400171  RH  065%=      5-min Rain = 0
KNH1 241516Z 08012KT 24/17 A3004 RMK A01 T02430172  RH  064%=      5-min Rain = 0
KNH1 241517Z 08011G16KT 24/17 A3004 RMK A01 T02430171  RH  064%=      5-min Rain = 0
KNH1 241518Z 08012KT 24/17 A3004 RMK A01 T02380169  RH  065%=      5-min Rain = 0
KNH1 241519Z 08013KT 24/17 A3004 RMK A01 T02370169  RH  066%=      5-min Rain = 0
KNH1 241520Z 09012KT 24/17 A3004 RMK A01 T02370170  RH  066%=      5-min Rain = 0
KNH1 241521Z 08012KT 24/17 A3004 RMK A01 T02380170  RH  066%=      5-min Rain = 0
KNH1 241522Z 08016KT 24/17 A3004 RMK A01 T02400171  RH  065%=      5-min Rain = 0
KNH1 241523Z 08013KT 24/17 A3004 RMK A01 T02410171  RH  065%=      5-min Rain = 0
KNH1 241524Z 09011KT 24/17 A3004 RMK A01 T02410170  RH  065%=      5-min Rain = 0
KNH1 241525Z 08014KT 24/17 A3004 RMK A01 T02400171  RH  065%=      5-min Rain = 0
KNH1 241526Z 09014G19KT 24/17 A3004 RMK A01 T02390170  RH  065%=      5-min Rain = 0
KNH1 241527Z 08013KT 24/17 A3004 RMK A01 T02400171  RH  065%=      5-min Rain = 0
KNH1 241528Z 08013KT 24/17 A3004 RMK A01 T02400170  RH  065%=      5-min Rain = 0
KNH1 241529Z 08015KT 24/17 A3004 RMK A01 T02400170  RH  065%=      5-min Rain = 0
KNH1 241530Z 09009KT 24/17 A3004 RMK A01 T02400172  RH  065%=      5-min Rain = 0
KNH1 241531Z 09011KT 24/17 A3004 RMK A01 T02420171  RH  064%=      5-min Rain = 0
KNH1 241532Z 09012KT 24/17 A3004 RMK A01 T02400170  RH  065%=      5-min Rain = 0
KNH1 241533Z 10012KT 24/17 A3004 RMK A01 T02410172  RH  065%=      5-min Rain = 0
KNH1 241534Z 10011KT 24/17 A3004 RMK A01 T02430172  RH  064%=      5-min Rain = 0
KNH1 241535Z 09011KT 25/17 A3004 RMK A01 T02450172  RH  064%=      5-min Rain = 0
KNH1 241536Z 07016KT 25/17 A3003 RMK A01 T02450172  RH  063%=      5-min Rain = 0
KNH1 241537Z 08012KT 24/17 A3003 RMK A01 T02410168  RH  064%=      5-min Rain = 0
KNH1 241538Z 09013KT 24/17 A3003 RMK A01 T02390170  RH  066%=      5-min Rain = 0
KNH1 241539Z 09013KT 24/17 A3003 RMK A01 T02430172  RH  065%=      5-min Rain = 0
KNH1 241540Z 09012G18KT 24/17 A3003 RMK A01 T02430171  RH  064%=      5-min Rain = 0
KNH1 241541Z 10011KT 24/17 A3003 RMK A01 T02420170  RH  064%=      5-min Rain = 0
KNH1 241542Z 10011G16KT 24/17 A3003 RMK A01 T02430172  RH  064%=      5-min Rain = 0
KNH1 241543Z 10010KT 25/17 A3004 RMK A01 T02480174  RH  064%=      5-min Rain = 0
KNH1 241544Z 09012KT 25/17 A3003 RMK A01 T02490172  RH  062%=      5-min Rain = 0
KNH1 241545Z 10012KT 24/17 A3003 RMK A01 T02440170  RH  063%=      5-min Rain = 0
KNH1 241546Z 11012KT 24/17 A3003 RMK A01 T02440172  RH  064%=      5-min Rain = 0
KNH1 241547Z 10010G15KT 25/17 A3003 RMK A01 T02460172  RH  063%=      5-min Rain = 0
KNH1 241548Z 09010G15KT 25/17 A3003 RMK A01 T02480172  RH  063%=      5-min Rain = 0
KNH1 241549Z 08013KT 25/17 A3003 RMK A01 T02480172  RH  063%=      5-min Rain = 0
KNH1 241550Z 09013G18KT 25/17 A3003 RMK A01 T02460172  RH  063%=      5-min Rain = 0
KNH1 241551Z 10014KT 25/17 A3003 RMK A01 T02490173  RH  063%=      5-min Rain = 0
KNH1 241552Z 10014G19KT 25/17 A3003 RMK A01 T02490172  RH  062%=      5-min Rain = 0
KNH1 241553Z 09013KT 25/17 A3003 RMK A01 T02490172  RH  062%=      5-min Rain = 0
KNH1 241554Z 09013KT 25/17 A3003 RMK A01 T02480172  RH  063%=      5-min Rain = 0
KNH1 241555Z 10014KT 25/17 A3003 RMK A01 T02470172  RH  063%=      5-min Rain = 0
KNH1 241556Z 09011G16KT 25/17 A3003 RMK A01 T02490172  RH  062%=      5-min Rain = 0
KNH1 241557Z 10011KT 25/17 A3003 RMK A01 T02490171  RH  062%=      5-min Rain = 0
KNH1 241558Z 10013G18KT 25/17 A3003 RMK A01 T02470171  RH  063%=      5-min Rain = 0
KNH1 241559Z 10014G19KT 25/17 A3003 RMK A01 T02470171  RH  063%=      5-min Rain = 0
KNH1 241600Z 10012G18KT 25/17 A3003 RMK A01 T02490172  RH  062%=      5-min Rain = 0
KNH1 241601Z 10011G16KT 25/17 A3003 RMK A01 T02510171  RH  061%=      5-min Rain = 0
KNH1 241602Z 10014KT 25/17 A3003 RMK A01 T02500171  RH  061%=      5-min Rain = 0
KNH1 241603Z 10012KT 25/17 A3003 RMK A01 T02500171  RH  061%=      5-min Rain = 0
KNH1 241604Z 09009KT 25/17 A3003 RMK A01 T02490171  RH  062%=      5-min Rain = 0
KNH1 241605Z 10010G16KT 25/17 A3003 RMK A01 T02510174  RH  062%=      5-min Rain = 0
KNH1 241606Z 09013KT 26/17 A3003 RMK A01 T02560173  RH  060%=      5-min Rain = 0
KNH1 241607Z 10015KT 25/17 A3003 RMK A01 T02540172  RH  060%=      5-min Rain = 0
KNH1 241608Z 09013KT 25/17 A3003 RMK A01 T02510170  RH  061%=      5-min Rain = 0
KNH1 241609Z 09012KT 25/17 A3003 RMK A01 T02500172  RH  062%=      5-min Rain = 0
KNH1 241610Z 09013KT 25/17 A3003 RMK A01 T02480171  RH  062%=      5-min Rain = 0
KNH1 241611Z 09013KT 25/17 A3003 RMK A01 T02460171  RH  063%=      5-min Rain = 0
KNH1 241612Z 08013G19KT 25/17 A3003 RMK A01 T02470172  RH  063%=      5-min Rain = 0
KNH1 241613Z 08015KT 25/17 A3003 RMK A01 T02490172  RH  062%=      5-min Rain = 0
KNH1 241614Z 08016KT 25/17 A3003 RMK A01 T02470172  RH  063%=      5-min Rain = 0
KNH1 241615Z 08017KT 25/17 A3002 RMK A01 T02480172  RH  062%=      5-min Rain = 0
KNH1 241616Z 08015KT 25/17 A3003 RMK A01 T02480171  RH  062%=      5-min Rain = 0
KNH1 241617Z 08013KT 25/17 A3003 RMK A01 T02470172  RH  063%=      5-min Rain = 0
KNH1 241618Z 10012G17KT 25/17 A3003 RMK A01 T02470172  RH  063%=      5-min Rain = 0
KNH1 241619Z 09012KT 25/17 A3003 RMK A01 T02490171  RH  062%=      5-min Rain = 0
KNH1 241620Z 09011KT 25/17 A3003 RMK A01 T02490173  RH  063%=      5-min Rain = 0
KNH1 241621Z 10009KT 25/17 A3003 RMK A01 T02510172  RH  062%=      5-min Rain = 0
KNH1 241622Z 10012KT 25/17 A3003 RMK A01 T02520173  RH  062%=      5-min Rain = 0
KNH1 241623Z 09008G15KT 25/17 A3003 RMK A01 T02540173  RH  061%=      5-min Rain = 0
KNH1 241624Z 10012KT 25/17 A3003 RMK A01 T02540174  RH  061%=      5-min Rain = 0
KNH1 241625Z 09012KT 25/17 A3003 RMK A01 T02540174  RH  061%=      5-min Rain = 0
KNH1 241626Z 09012KT 26/17 A3003 RMK A01 T02550172  RH  060%=      5-min Rain = 0
KNH1 241627Z 10011KT 25/17 A3003 RMK A01 T02540173  RH  061%=      5-min Rain = 0
KNH1 241628Z 09010KT 25/17 A3003 RMK A01 T02540174  RH  061%=      5-min Rain = 0
KNH1 241629Z 10014G19KT 26/17 A3003 RMK A01 T02570173  RH  060%=      5-min Rain = 0
KNH1 241630Z 10013KT 26/17 A3003 RMK A01 T02570173  RH  060%=      5-min Rain = 0
KNH1 241631Z 10014G20KT 26/17 A3003 RMK A01 T02560173  RH  060%=      5-min Rain = 0
KNH1 241632Z 11011G17KT 26/17 A3003 RMK A01 T02560173  RH  060%=      5-min Rain = 0
KNH1 241633Z 09011KT 26/18 A3003 RMK A01 T02580176  RH  061%=      5-min Rain = 0
KNH1 241634Z 09015KT 26/18 A3002 RMK A01 T02600175  RH  059%=      5-min Rain = 0
KNH1 241635Z 08012G17KT 26/17 A3003 RMK A01 T02590174  RH  059%=      5-min Rain = 0
KNH1 241636Z 10010G15KT 26/18 A3003 RMK A01 T02580176  RH  060%=      5-min Rain = 0
KNH1 241637Z 09014G19KT 26/18 A3003 RMK A01 T02610176  RH  059%=      5-min Rain = 0
KNH1 241638Z 08014KT 26/17 A3003 RMK A01 T02580172  RH  059%=      5-min Rain = 0
KNH1 241639Z 07012KT 26/17 A3002 RMK A01 T02550174  RH  061%=      5-min Rain = 0
KNH1 241640Z 08013G18KT 26/17 A3002 RMK A01 T02550174  RH  061%=      5-min Rain = 0
KNH1 241641Z 10012KT 26/18 A3003 RMK A01 T02550175  RH  061%=      5-min Rain = 0
KNH1 241642Z 11010KT 26/18 A3003 RMK A01 T02600176  RH  059%=      5-min Rain = 0
KNH1 241643Z 09012G17KT 26/18 A3003 RMK A01 T02640176  RH  058%=      5-min Rain = 0
KNH1 241644Z 09012G17KT 27/17 A3003 RMK A01 T02650174  RH  057%=      5-min Rain = 0
KNH1 241645Z 10012G17KT 26/18 A3003 RMK A01 T02640175  RH  058%=      5-min Rain = 0
KNH1 241646Z 11011G16KT 26/17 A3003 RMK A01 T02640174  RH  058%=      5-min Rain = 0
KNH1 241647Z 10010G18KT 26/17 A3003 RMK A01 T02640173  RH  057%=      5-min Rain = 0
KNH1 241648Z 10010KT 26/17 A3003 RMK A01 T02640173  RH  057%=      5-min Rain = 0
KNH1 241649Z 09010KT 26/17 A3003 RMK A01 T02640173  RH  057%=      5-min Rain = 0
KNH1 241650Z 09010G15KT 26/17 A3003 RMK A01 T02630172  RH  057%=      5-min Rain = 0
KNH1 241651Z 09011KT 26/17 A3003 RMK A01 T02620173  RH  058%=      5-min Rain = 0
KNH1 241652Z 10012KT 26/17 A3003 RMK A01 T02600174  RH  059%=      5-min Rain = 0
KNH1 241653Z 08011KT 26/17 A3003 RMK A01 T02630174  RH  058%=      5-min Rain = 0
KNH1 241654Z 10014KT 26/17 A3003 RMK A01 T02640174  RH  058%=      5-min Rain = 0
KNH1 241655Z 11013KT 26/17 A3003 RMK A01 T02630172  RH  057%=      5-min Rain = 0
KNH1 241656Z 11009KT 26/17 A3003 RMK A01 T02630172  RH  057%=      5-min Rain = 0
KNH1 241657Z 11011KT 26/17 A3003 RMK A01 T02620171  RH  057%=      5-min Rain = 0
KNH1 241658Z 10009KT 26/17 A3003 RMK A01 T02620172  RH  057%=      5-min Rain = 0
KNH1 241659Z 09013KT 26/17 A3003 RMK A01 T02640173  RH  057%=      5-min Rain = 0
KNH1 241700Z 09015G20KT 26/17 A3003 RMK A01 T02640172  RH  057%=      5-min Rain = 0
KNH1 241701Z 10011KT 26/17 A3003 RMK A01 T02630174  RH  058%=      5-min Rain = 0
KNH1 241702Z 11011KT 27/17 A3003 RMK A01 T02650172  RH  057%=      5-min Rain = 0
KNH1 241703Z 11010KT 27/17 A3003 RMK A01 T02660173  RH  057%=      5-min Rain = 0
KNH1 241704Z 11014G19KT 27/17 A3003 RMK A01 T02670173  RH  056%=      5-min Rain = 0
KNH1 241705Z 11014KT 27/17 A3003 RMK A01 T02670173  RH  056%=      5-min Rain = 0
KNH1 241706Z 12012KT 27/17 A3003 RMK A01 T02660171  RH  056%=      5-min Rain = 0
KNH1 241707Z 11013KT 27/17 A3003 RMK A01 T02650172  RH  057%=      5-min Rain = 0
KNH1 241708Z 10010KT 27/17 A3003 RMK A01 T02660171  RH  056%=      5-min Rain = 0
KNH1 241709Z 10012G17KT 27/17 A3003 RMK A01 T02650173  RH  057%=      5-min Rain = 0
KNH1 241710Z 11012G17KT 27/17 A3003 RMK A01 T02660172  RH  056%=      5-min Rain = 0
KNH1 241711Z 09012KT 27/17 A3002 RMK A01 T02660171  RH  056%=      5-min Rain = 0
KNH1 241712Z 10010KT 26/17 A3002 RMK A01 T02630172  RH  057%=      5-min Rain = 0
KNH1 241713Z 10012KT 27/17 A3003 RMK A01 T02660174  RH  057%=      5-min Rain = 0
KNH1 241714Z 10012KT 27/17 A3003 RMK A01 T02670174  RH  056%=      5-min Rain = 0
KNH1 241715Z 11011G16KT 27/17 A3003 RMK A01 T02680173  RH  056%=      5-min Rain = 0
KNH1 241716Z 11012KT 27/17 A3002 RMK A01 T02670173  RH  056%=      5-min Rain = 0
KNH1 241717Z 10013KT 27/17 A3003 RMK A01 T02680173  RH  056%=      5-min Rain = 0
KNH1 241718Z 11013G18KT 27/17 A3002 RMK A01 T02680172  RH  056%=      5-min Rain = 0
KNH1 241719Z 10012G18KT 27/17 A3002 RMK A01 T02670173  RH  056%=      5-min Rain = 0
KNH1 241720Z 11012KT 27/17 A3002 RMK A01 T02660173  RH  057%=      5-min Rain = 0
KNH1 241721Z 12011KT 27/17 A3003 RMK A01 T02670173  RH  056%=      5-min Rain = 0
KNH1 241722Z 11012KT 27/17 A3003 RMK A01 T02690174  RH  056%=      5-min Rain = 0
KNH1 241723Z 12011KT 27/17 A3003 RMK A01 T02700174  RH  056%=      5-min Rain = 0
KNH1 241724Z 11010G15KT 27/17 A3003 RMK A01 T02700174  RH  056%=      5-min Rain = 0
KNH1 241725Z 10008KT 27/17 A3003 RMK A01 T02700173  RH  055%=      5-min Rain = 0
KNH1 241726Z 10008KT 27/17 A3002 RMK A01 T02700173  RH  055%=      5-min Rain = 0
KNH1 241727Z 09009G15KT 27/17 A3002 RMK A01 T02710174  RH  055%=      5-min Rain = 0
KNH1 241728Z 10010KT 27/17 A3003 RMK A01 T02720174  RH  055%=      5-min Rain = 0
KNH1 241729Z 09007KT 27/17 A3003 RMK A01 T02730174  RH  055%=      5-min Rain = 0
KNH1 241730Z 08008KT 27/17 A3002 RMK A01 T02710171  RH  054%=      5-min Rain = 0
KNH1 241731Z 07010KT 27/17 A3003 RMK A01 T02680172  RH  056%=      5-min Rain = 0
KNH1 241732Z 08011KT 27/17 A3002 RMK A01 T02670172  RH  056%=      5-min Rain = 0
KNH1 241733Z 09010KT 27/17 A3002 RMK A01 T02680173  RH  056%=      5-min Rain = 0
KNH1 241734Z 09009G15KT 27/17 A3003 RMK A01 T02710173  RH  055%=      5-min Rain = 0
KNH1 241735Z 10009G14KT 27/18 A3002 RMK A01 T02720175  RH  055%=      5-min Rain = 0
KNH1 241736Z 10011G16KT 27/17 A3002 RMK A01 T02730174  RH  055%=      5-min Rain = 0
KNH1 241737Z 09008KT 28/18 A3002 RMK A01 T02760175  RH  054%=      5-min Rain = 0
KNH1 241738Z 10010KT 28/17 A3002 RMK A01 T02770172  RH  053%=      5-min Rain = 0
KNH1 241739Z 09011G16KT 28/17 A3002 RMK A01 T02760173  RH  053%=      5-min Rain = 0
KNH1 241740Z 08011KT 27/17 A3002 RMK A01 T02740172  RH  054%=      5-min Rain = 0
KNH1 241741Z 09013KT 27/17 A3002 RMK A01 T02720174  RH  055%=      5-min Rain = 0
KNH1 241742Z 11010KT 27/17 A3002 RMK A01 T02740174  RH  054%=      5-min Rain = 0
KNH1 241743Z 09008KT 28/17 A3002 RMK A01 T02750174  RH  054%=      5-min Rain = 0
KNH1 241744Z 09012G19KT 28/18 A3002 RMK A01 T02790177  RH  054%=      5-min Rain = 0
KNH1 241745Z 10011G16KT 28/18 A3002 RMK A01 T02810175  RH  052%=      5-min Rain = 0
KNH1 241746Z 11010KT 28/18 A3002 RMK A01 T02830175  RH  052%=      5-min Rain = 0
KNH1 241747Z 11010G15KT 28/17 A3002 RMK A01 T02840173  RH  051%=      5-min Rain = 0
KNH1 241748Z 10007KT 28/17 A3002 RMK A01 T02810174  RH  052%=      5-min Rain = 0
KNH1 241749Z 08011KT 28/17 A3002 RMK A01 T02790174  RH  053%=      5-min Rain = 0
KNH1 241750Z 08010KT 28/17 A3002 RMK A01 T02760174  RH  054%=      5-min Rain = 0
KNH1 241751Z 09011KT 28/17 A3002 RMK A01 T02750172  RH  053%=      5-min Rain = 0
KNH1 241752Z 08009KT 27/17 A3002 RMK A01 T02730173  RH  054%=      5-min Rain = 0
KNH1 241753Z 09011KT 27/17 A3002 RMK A01 T02730171  RH  054%=      5-min Rain = 0
KNH1 241754Z 10009G15KT 27/17 A3002 RMK A01 T02740170  RH  053%=      5-min Rain = 0
KNH1 241755Z 10012KT 27/17 A3002 RMK A01 T02740169  RH  053%=      5-min Rain = 0
KNH1 241756Z 10009G14KT 28/17 A3002 RMK A01 T02750172  RH  053%=      5-min Rain = 0
KNH1 241757Z 09009KT 28/17 A3002 RMK A01 T02780172  RH  053%=      5-min Rain = 0
KNH1 241758Z 09007KT 28/17 A3002 RMK A01 T02770172  RH  053%=      5-min Rain = 0
KNH1 241759Z 09008KT 27/17 A3002 RMK A01 T02740174  RH  054%=      5-min Rain = 0
KNH1 241800Z 12009KT 28/18 A3002 RMK A01 T02770176  RH  054%=      5-min Rain = 0
KNH1 241801Z 11006KT 28/18 A3002 RMK A01 T02820176  RH  053%=      5-min Rain = 0
KNH1 241802Z 12007G13KT 28/17 A3002 RMK A01 T02830174  RH  052%=      5-min Rain = 0
KNH1 241803Z 14007G12KT 28/17 A3002 RMK A01 T02830172  RH  051%=      5-min Rain = 0
KNH1 241804Z 13007KT 29/17 A3002 RMK A01 T02850171  RH  050%=      5-min Rain = 0
KNH1 241805Z 11006KT 29/18 A3002 RMK A01 T02870175  RH  051%=      5-min Rain = 0
KNH1 241806Z 13008G13KT 29/18 A3002 RMK A01 T02900176  RH  050%=      5-min Rain = 0
KNH1 241807Z 13009G15KT 29/17 A3002 RMK A01 T02900174  RH  050%=      5-min Rain = 0
KNH1 241808Z 13008KT 29/18 A3002 RMK A01 T02900176  RH  050%=      5-min Rain = 0
KNH1 241809Z 14007KT 29/17 A3002 RMK A01 T02900173  RH  049%=      5-min Rain = 0
KNH1 241810Z 12008KT 29/17 A3002 RMK A01 T02890174  RH  050%=      5-min Rain = 0
KNH1 241811Z 14009KT 29/17 A3001 RMK A01 T02890170  RH  049%=      5-min Rain = 0
KNH1 241812Z 13009KT 29/17 A3001 RMK A01 T02870169  RH  049%=      5-min Rain = 0
KNH1 241813Z 13009KT 29/17 A3001 RMK A01 T02860167  RH  048%=      5-min Rain = 0
KNH1 241814Z 11010KT 29/17 A3001 RMK A01 T02860168  RH  049%=      5-min Rain = 0
KNH1 241815Z 13009KT 29/17 A3001 RMK A01 T02860171  RH  050%=      5-min Rain = 0
KNH1 241816Z 12012KT 29/17 A3001 RMK A01 T02880171  RH  049%=      5-min Rain = 0
KNH1 241817Z 13008G13KT 29/17 A3001 RMK A01 T02880170  RH  049%=      5-min Rain = 0
KNH1 241818Z 13009KT 29/17 A3001 RMK A01 T02880170  RH  049%=      5-min Rain = 0
KNH1 241819Z 13008KT 29/17 A3001 RMK A01 T02880171  RH  049%=      5-min Rain = 0
KNH1 241820Z 12005KT 29/17 A3001 RMK A01 T02880170  RH  049%=      5-min Rain = 0
KNH1 241821Z 13007KT 29/17 A3001 RMK A01 T02890173  RH  049%=      5-min Rain = 0
KNH1 241822Z 10008KT 29/17 A3001 RMK A01 T02920173  RH  049%=      5-min Rain = 0
KNH1 241823Z 10008G13KT 29/17 A3001 RMK A01 T02930172  RH  048%=      5-min Rain = 0
KNH1 241824Z 10009G14KT 29/17 A3001 RMK A01 T02940173  RH  048%=      5-min Rain = 0
KNH1 241825Z 11005KT 29/17 A3001 RMK A01 T02910171  RH  049%=      5-min Rain = 0
KNH1 241826Z 12008G13KT 29/17 A3001 RMK A01 T02880173  RH  050%=      5-min Rain = 0
KNH1 241827Z 10011KT 29/17 A3001 RMK A01 T02890173  RH  049%=      5-min Rain = 0
KNH1 241828Z 12008KT 29/17 A3001 RMK A01 T02870172  RH  050%=      5-min Rain = 0
KNH1 241829Z 12007KT 29/17 A3001 RMK A01 T02870173  RH  050%=      5-min Rain = 0
KNH1 241830Z 15005KT 29/17 A3001 RMK A01 T02900170  RH  048%=      5-min Rain = 0
KNH1 241831Z 13009KT 29/17 A3001 RMK A01 T02910171  RH  048%=      5-min Rain = 0
KNH1 241832Z 14006KT 29/17 A3001 RMK A01 T02920169  RH  047%=      5-min Rain = 0
KNH1 241833Z 13005KT 29/17 A3001 RMK A01 T02890167  RH  048%=      5-min Rain = 0
KNH1 241834Z 09008KT 29/17 A3001 RMK A01 T02870171  RH  050%=      5-min Rain = 0
KNH1 241835Z 08010KT 29/17 A3001 RMK A01 T02880171  RH  049%=      5-min Rain = 0
KNH1 241836Z 10010KT 29/17 A3001 RMK A01 T02860171  RH  050%=      5-min Rain = 0
KNH1 241837Z 10007KT 29/17 A3001 RMK A01 T02870172  RH  050%=      5-min Rain = 0
KNH1 241838Z 10007KT 29/17 A3001 RMK A01 T02900174  RH  050%=      5-min Rain = 0
KNH1 241839Z 10007KT 29/17 A3001 RMK A01 T02920172  RH  049%=      5-min Rain = 0
KNH1 241840Z 10006G14KT 29/17 A3001 RMK A01 T02910174  RH  049%=      5-min Rain = 0
KNH1 241841Z 10008G16KT 29/17 A30 RMK A01 T02920173  RH  048%=      5-min Rain = 0
KNH1 241842Z 12008KT 29/17 A3001 RMK A01 T02910174  RH  049%=      5-min Rain = 0
KNH1 241843Z 13006KT 29/17 A3001 RMK A01 T02910171  RH  048%=      5-min Rain = 0
KNH1 241844Z 13008KT 29/17 A30 RMK A01 T02930172  RH  048%=      5-min Rain = 0
KNH1 241845Z 12005KT 29/17 A30 RMK A01 T02940172  RH  048%=      5-min Rain = 0
KNH1 241846Z 11006KT 30/18 A30 RMK A01 T02970175  RH  048%=      5-min Rain = 0
KNH1 241847Z 13009KT 30/17 A30 RMK A01 T03010171  RH  046%=      5-min Rain = 0
KNH1 241848Z 13007G13KT 30/17 A30 RMK A01 T02990167  RH  045%=      5-min Rain = 0
KNH1 241849Z 15008KT 30/17 A30 RMK A01 T02980167  RH  045%=      5-min Rain = 0
KNH1 241850Z 13007G13KT 30/17 A30 RMK A01 T02960168  RH  046%=      5-min Rain = 0
KNH1 241851Z 13007KT 30/17 A30 RMK A01 T02980168  RH  045%=      5-min Rain = 0
KNH1 241852Z 14005KT 30/17 A30 RMK A01 T02990166  RH  045%=      5-min Rain = 0
KNH1 241853Z 14004KT 30/16 A30 RMK A01 T02990161  RH  043%=      5-min Rain = 0
KNH1 241854Z 11004KT 30/17 A30 RMK A01 T02970166  RH  045%=      5-min Rain = 0
KNH1 241855Z 12005KT 30/17 A30 RMK A01 T02980171  RH  046%=      5-min Rain = 0
KNH1 241856Z 13007G12KT 30/17 A30 RMK A01 T03000173  RH  047%=      5-min Rain = 0
KNH1 241857Z 13009KT 30/17 A30 RMK A01 T03010170  RH  045%=      5-min Rain = 0
KNH1 241858Z 12008G13KT 30/17 A30 RMK A01 T03010170  RH  045%=      5-min Rain = 0
KNH1 241859Z 10009KT 30/17 A30 RMK A01 T03010173  RH  046%=      5-min Rain = 0
KNH1 241900Z 10008KT 30/17 A30 RMK A01 T03010173  RH  046%=      5-min Rain = 0
KNH1 241901Z 11005KT 30/17 A30 RMK A01 T03000170  RH  046%=      5-min Rain = 0
KNH1 241902Z 12006KT 30/17 A30 RMK A01 T02980174  RH  047%=      5-min Rain = 0
KNH1 241903Z 11007KT 30/17 A30 RMK A01 T03000174  RH  047%=      5-min Rain = 0
KNH1 241904Z 11007KT 30/17 A30 RMK A01 T03030172  RH  045%=      5-min Rain = 0
KNH1 241905Z 12006KT 30/18 A30 RMK A01 T03030175  RH  046%=      5-min Rain = 0
KNH1 241906Z 14008KT 30/17 A30 RMK A01 T03030172  RH  045%=      5-min Rain = 0
KNH1 241907Z 13007G12KT 30/17 A30 RMK A01 T03020172  RH  046%=      5-min Rain = 0
KNH1 241908Z 14009KT 30/17 A30 RMK A01 T03020169  RH  045%=      5-min Rain = 0
KNH1 241909Z 14007KT 30/17 A30 RMK A01 T03000168  RH  045%=      5-min Rain = 0
KNH1 241910Z 12008KT 30/17 A30 RMK A01 T02990170  RH  046%=      5-min Rain = 0
KNH1 241911Z 14008KT 30/17 A30 RMK A01 T03000166  RH  044%=      5-min Rain = 0
KNH1 241912Z 15007KT 30/17 A30 RMK A01 T02980165  RH  045%=      5-min Rain = 0
KNH1 241913Z 14007G13KT 30/17 A30 RMK A01 T02980170  RH  046%=      5-min Rain = 0
KNH1 241914Z 13008KT 30/17 A30 RMK A01 T03000172  RH  046%=      5-min Rain = 0
KNH1 241915Z 10006KT 30/17 A30 RMK A01 T03020171  RH  045%=      5-min Rain = 0
KNH1 241916Z 10006KT 30/17 A2999 RMK A01 T02990171  RH  046%=      5-min Rain = 0
KNH1 241917Z 11009KT 30/17 A2999 RMK A01 T02980171  RH  046%=      5-min Rain = 0
KNH1 241918Z 11011KT 30/17 A30 RMK A01 T03010171  RH  046%=      5-min Rain = 0
KNH1 241919Z 12006KT 30/17 A30 RMK A01 T03020172  RH  046%=      5-min Rain = 0
KNH1 241920Z 11008G14KT 30/17 A30 RMK A01 T03000171  RH  046%=      5-min Rain = 0
KNH1 241921Z 11010KT 30/17 A30 RMK A01 T02970171  RH  047%=      5-min Rain = 0
KNH1 241922Z 11006KT 29/17 A30 RMK A01 T02940172  RH  048%=      5-min Rain = 0
KNH1 241923Z 10007G12KT 30/18 A30 RMK A01 T02980177  RH  048%=      5-min Rain = 0
KNH1 241924Z 11009G14KT 31/18 A30 RMK A01 T03050175  RH  046%=      5-min Rain = 0
KNH1 241925Z 11009KT 31/17 A30 RMK A01 T03070173  RH  044%=      5-min Rain = 0
KNH1 241926Z 10009KT 31/17 A30 RMK A01 T03080172  RH  044%=      5-min Rain = 0
KNH1 241927Z 10008KT 31/17 A30 RMK A01 T03080169  RH  043%=      5-min Rain = 0
KNH1 241928Z 10007KT 31/17 A30 RMK A01 T03060170  RH  044%=      5-min Rain = 0
KNH1 241929Z 10005KT 30/17 A30 RMK A01 T03030169  RH  045%=      5-min Rain = 0
KNH1 241930Z 09007KT 30/17 A30 RMK A01 T03010171  RH  046%=      5-min Rain = 0
KNH1 241931Z 16005KT 30/17 A30 RMK A01 T03020171  RH  045%=      5-min Rain = 0
KNH1 241932Z 19006KT 30/17 A2999 RMK A01 T03030167  RH  044%=      5-min Rain = 0
KNH1 241933Z 16006KT 30/17 A2999 RMK A01 T03020168  RH  045%=      5-min Rain = 0
KNH1 241934Z 14004KT 30/17 A2999 RMK A01 T03020167  RH  044%=      5-min Rain = 0
KNH1 241935Z 16009KT 30/17 A2999 RMK A01 T03030169  RH  044%=      5-min Rain = 0
KNH1 241936Z 18006KT 30/16 A2999 RMK A01 T03040163  RH  043%=      5-min Rain = 0
KNH1 241937Z 16004KT 30/17 A2999 RMK A01 T03010167  RH  044%=      5-min Rain = 0
KNH1 241938Z 14005KT 30/17 A2999 RMK A01 T03020165  RH  044%=      5-min Rain = 0
KNH1 241939Z 14007KT 30/17 A2999 RMK A01 T03040168  RH  044%=      5-min Rain = 0
KNH1 241940Z 14005KT 31/17 A2999 RMK A01 T03090167  RH  043%=      5-min Rain = 0
KNH1 241941Z 14006G11KT 31/17 A2999 RMK A01 T03110168  RH  042%=      5-min Rain = 0
KNH1 241942Z 12006KT 31/17 A2999 RMK A01 T03110174  RH  044%=      5-min Rain = 0
KNH1 241943Z 14007KT 31/17 A2999 RMK A01 T03120168  RH  042%=      5-min Rain = 0
KNH1 241944Z 15006KT 31/17 A2999 RMK A01 T03130165  RH  041%=      5-min Rain = 0
KNH1 241945Z 16006KT 31/17 A2999 RMK A01 T03120167  RH  042%=      5-min Rain = 0
KNH1 241946Z 14009KT 31/17 A2999 RMK A01 T03110169  RH  043%=      5-min Rain = 0
KNH1 241947Z 13010KT 31/17 A2999 RMK A01 T03110170  RH  043%=      5-min Rain = 0
KNH1 241948Z 10006KT 31/17 A2999 RMK A01 T03110170  RH  043%=      5-min Rain = 0
KNH1 241949Z 12007KT 31/17 A2999 RMK A01 T03120171  RH  043%=      5-min Rain = 0
KNH1 241950Z 13007KT 31/17 A2999 RMK A01 T03130173  RH  043%=      5-min Rain = 0
KNH1 241951Z 13008KT 31/17 A2999 RMK A01 T03140171  RH  042%=      5-min Rain = 0
KNH1 241952Z 12006KT 31/17 A2999 RMK A01 T03130168  RH  042%=      5-min Rain = 0
KNH1 241953Z 12008KT 31/17 A2999 RMK A01 T03110168  RH  042%=      5-min Rain = 0
KNH1 241954Z 11006KT 31/17 A2999 RMK A01 T03100167  RH  042%=      5-min Rain = 0
KNH1 241955Z 11006KT 31/17 A2999 RMK A01 T03100172  RH  044%=      5-min Rain = 0
KNH1 241956Z 12008KT 31/17 A2998 RMK A01 T03100172  RH  044%=      5-min Rain = 0
KNH1 241957Z 10008KT 31/17 A2998 RMK A01 T03100172  RH  044%=      5-min Rain = 0
KNH1 241958Z 11008KT 31/17 A2998 RMK A01 T03120174  RH  044%=      5-min Rain = 0
KNH1 241959Z 12010KT 31/17 A2998 RMK A01 T03120174  RH  044%=      5-min Rain = 0
KNH1 242000Z 11010KT 31/17 A2998 RMK A01 T03120173  RH  043%=      5-min Rain = 0
KNH1 242001Z 11009KT 31/17 A2998 RMK A01 T03080171  RH  044%=      5-min Rain = 0
KNH1 242002Z 12005KT 30/17 A2998 RMK A01 T03040171  RH  045%=      5-min Rain = 0
KNH1 242003Z 11008KT 30/17 A2998 RMK A01 T03020170  RH  045%=      5-min Rain = 0
KNH1 242004Z 11006KT 30/17 A2998 RMK A01 T03020171  RH  045%=      5-min Rain = 0
KNH1 242005Z 11008KT 30/17 A2998 RMK A01 T03040169  RH  044%=      5-min Rain = 0
KNH1 242006Z 08006KT 30/17 A2998 RMK A01 T03040169  RH  044%=      5-min Rain = 0
KNH1 242007Z 13009KT 30/17 A2998 RMK A01 T03040169  RH  044%=      5-min Rain = 0
KNH1 242008Z 13012KT 31/17 A2998 RMK A01 T03050170  RH  044%=      5-min Rain = 0
KNH1 242009Z 13009KT 31/17 A2998 RMK A01 T03070168  RH  043%=      5-min Rain = 0
KNH1 242010Z 13005KT 31/17 A2998 RMK A01 T03090170  RH  043%=      5-min Rain = 0
KNH1 242011Z 12006G11KT 31/17 A2998 RMK A01 T03100171  RH  043%=      5-min Rain = 0
KNH1 242012Z 12008KT 31/17 A2998 RMK A01 T03110169  RH  043%=      5-min Rain = 0
KNH1 242013Z 12007KT 31/17 A2998 RMK A01 T03110168  RH  042%=      5-min Rain = 0
KNH1 242014Z 14007KT 31/17 A2998 RMK A01 T03120165  RH  041%=      5-min Rain = 0
KNH1 242015Z 10006KT 31/17 A2998 RMK A01 T03110167  RH  042%=      5-min Rain = 0
KNH1 242016Z 10007KT 31/16 A2998 RMK A01 T03110164  RH  041%=      5-min Rain = 0
KNH1 242017Z 07008KT 31/16 A2998 RMK A01 T03110162  RH  041%=      5-min Rain = 0
KNH1 242018Z 08008KT 31/16 A2998 RMK A01 T03080162  RH  041%=      5-min Rain = 0
KNH1 242019Z 09006KT 31/16 A2998 RMK A01 T03050162  RH  042%=      5-min Rain = 0
KNH1 242020Z 13007KT 30/17 A2998 RMK A01 T03010170  RH  045%=      5-min Rain = 0
KNH1 242021Z 11010KT 30/17 A2998 RMK A01 T03000173  RH  046%=      5-min Rain = 0
KNH1 242022Z 14011KT 30/17 A2998 RMK A01 T03000172  RH  046%=      5-min Rain = 0
KNH1 242023Z 14010KT 30/17 A2998 RMK A01 T03000170  RH  045%=      5-min Rain = 0
KNH1 242024Z 13008G13KT 30/17 A2998 RMK A01 T02990166  RH  045%=      5-min Rain = 0
KNH1 242025Z 13008KT 30/17 A2998 RMK A01 T02980166  RH  045%=      5-min Rain = 0
KNH1 242026Z 11008KT 30/17 A2997 RMK A01 T02970165  RH  045%=      5-min Rain = 0
KNH1 242027Z 12006KT 30/17 A2997 RMK A01 T02980166  RH  045%=      5-min Rain = 0
KNH1 242028Z 14006KT 30/17 A2997 RMK A01 T02980169  RH  046%=      5-min Rain = 0
KNH1 242029Z 15010KT 30/17 A2997 RMK A01 T03000168  RH  045%=      5-min Rain = 0
KNH1 242030Z 14008KT 30/17 A2997 RMK A01 T03000165  RH  044%=      5-min Rain = 0
KNH1 242031Z 14010KT 30/17 A2997 RMK A01 T02990165  RH  044%=      5-min Rain = 0
KNH1 242032Z 13009KT 30/16 A2997 RMK A01 T02990163  RH  044%=      5-min Rain = 0
KNH1 242033Z 13009KT 30/16 A2997 RMK A01 T03010163  RH  043%=      5-min Rain = 0
KNH1 242034Z 15005KT 30/16 A2997 RMK A01 T03040163  RH  043%=      5-min Rain = 0
KNH1 242035Z 13004KT 31/16 A2997 RMK A01 T03060164  RH  043%=      5-min Rain = 0
KNH1 242036Z 11005G10KT 31/16 A2997 RMK A01 T03070164  RH  042%=      5-min Rain = 0
KNH1 242037Z 13007KT 31/17 A2997 RMK A01 T03090166  RH  042%=      5-min Rain = 0
KNH1 242038Z 14008KT 31/17 A2997 RMK A01 T03120169  RH  042%=      5-min Rain = 0
KNH1 242039Z 15005KT 31/17 A2997 RMK A01 T03140169  RH  042%=      5-min Rain = 0
KNH1 242040Z 16002KT 31/17 A2997 RMK A01 T03130169  RH  042%=      5-min Rain = 0
KNH1 242041Z 14002KT 31/17 A2997 RMK A01 T03140174  RH  043%=      5-min Rain = 0
KNH1 242042Z 16003KT 31/17 A2997 RMK A01 T03140173  RH  043%=      5-min Rain = 0
KNH1 242043Z 14007KT 32/18 A2997 RMK A01 T03170175  RH  043%=      5-min Rain = 0
KNH1 242044Z 14010KT 32/17 A2997 RMK A01 T03190171  RH  041%=      5-min Rain = 0
KNH1 242045Z 14009KT 32/17 A2997 RMK A01 T03180167  RH  040%=      5-min Rain = 0
KNH1 242046Z 12006G11KT 32/17 A2996 RMK A01 T03160167  RH  041%=      5-min Rain = 0
KNH1 242047Z 11008KT 32/17 A2996 RMK A01 T03150166  RH  041%=      5-min Rain = 0
KNH1 242048Z 10005KT 31/17 A2996 RMK A01 T03140166  RH  041%=      5-min Rain = 0
KNH1 242049Z 15005KT 31/17 A2996 RMK A01 T03130170  RH  042%=      5-min Rain = 0
KNH1 242050Z 16006KT 31/17 A2996 RMK A01 T03130170  RH  042%=      5-min Rain = 0
KNH1 242051Z 13007G14KT 31/17 A2996 RMK A01 T03130172  RH  043%=      5-min Rain = 0
KNH1 242052Z 15011KT 32/17 A2996 RMK A01 T03160169  RH  041%=      5-min Rain = 0
KNH1 242053Z 16006G11KT 31/17 A2996 RMK A01 T03130167  RH  042%=      5-min Rain = 0
KNH1 242054Z 12007KT 31/17 A2996 RMK A01 T03120170  RH  043%=      5-min Rain = 0
KNH1 242055Z 12009KT 31/17 A2996 RMK A01 T03140169  RH  042%=      5-min Rain = 0
KNH1 242056Z 11006KT 32/17 A2996 RMK A01 T03160168  RH  041%=      5-min Rain = 0
KNH1 242057Z 08001KT 32/17 A2996 RMK A01 T03150169  RH  041%=      5-min Rain = 0
KNH1 242058Z 29001KT 32/17 A2996 RMK A01 T03150170  RH  042%=      5-min Rain = 0
KNH1 242059Z 21001KT 32/17 A2996 RMK A01 T03150171  RH  042%=      5-min Rain = 0
KNH1 242100Z 18001KT 32/17 A2996 RMK A01 T03170172  RH  042%=      5-min Rain = 0
KNH1 242101Z 15006G12KT 32/17 A2996 RMK A01 T03170171  RH  042%=      5-min Rain = 0
KNH1 242102Z 17008KT 32/17 A2996 RMK A01 T03180169  RH  041%=      5-min Rain = 0
KNH1 242103Z 18007KT 32/17 A2996 RMK A01 T03160167  RH  041%=      5-min Rain = 0
KNH1 242104Z 19006KT 31/17 A2996 RMK A01 T03120166  RH  042%=      5-min Rain = 0
KNH1 242105Z 17008KT 31/17 A2996 RMK A01 T03110168  RH  042%=      5-min Rain = 0
KNH1 242106Z 16005KT 31/17 A2996 RMK A01 T03120169  RH  042%=      5-min Rain = 0
KNH1 242107Z 18008KT 32/17 A2996 RMK A01 T03150169  RH  041%=      5-min Rain = 0
KNH1 242108Z 20006KT 32/17 A2996 RMK A01 T03150166  RH  041%=      5-min Rain = 0
KNH1 242109Z 21007KT 31/17 A2996 RMK A01 T03140167  RH  041%=      5-min Rain = 0
KNH1 242110Z 22007KT 31/17 A2996 RMK A01 T03110166  RH  042%=      5-min Rain = 0
KNH1 242111Z 25003KT 31/17 A2996 RMK A01 T03100168  RH  043%=      5-min Rain = 0
KNH1 242112Z 16001KT 31/17 A2996 RMK A01 T03100170  RH  043%=      5-min Rain = 0
KNH1 242113Z 11004KT 31/17 A2996 RMK A01 T03130166  RH  041%=      5-min Rain = 0
KNH1 242114Z 15003KT 31/16 A2996 RMK A01 T03140164  RH  041%=      5-min Rain = 0
KNH1 242115Z 13003KT 31/16 A2996 RMK A01 T03110162  RH  041%=      5-min Rain = 0
KNH1 242116Z 09003KT 31/17 A2996 RMK A01 T03100165  RH  042%=      5-min Rain = 0
KNH1 242117Z 09006KT 31/17 A2996 RMK A01 T03110171  RH  043%=      5-min Rain = 0
KNH1 242118Z 08007KT 31/17 A2995 RMK A01 T03120170  RH  043%=      5-min Rain = 0
KNH1 242119Z 15004KT 31/17 A2995 RMK A01 T03090170  RH  043%=      5-min Rain = 0
KNH1 242120Z 17009KT 31/17 A2995 RMK A01 T03080168  RH  043%=      5-min Rain = 0
KNH1 242121Z 17006G11KT 31/17 A2995 RMK A01 T03100167  RH  042%=      5-min Rain = 0
KNH1 242122Z 14010KT 32/17 A2995 RMK A01 T03150169  RH  042%=      5-min Rain = 0
KNH1 242123Z 14009KT 32/17 A2995 RMK A01 T03170168  RH  041%=      5-min Rain = 0
KNH1 242124Z 15008KT 32/17 A2995 RMK A01 T03170167  RH  041%=      5-min Rain = 0
KNH1 242125Z 16008KT 32/17 A2995 RMK A01 T03170166  RH  040%=      5-min Rain = 0
KNH1 242126Z 14004KT 32/17 A2995 RMK A01 T03170169  RH  041%=      5-min Rain = 0
KNH1 242127Z 12006KT 32/17 A2995 RMK A01 T03190168  RH  041%=      5-min Rain = 0
KNH1 242128Z 11007KT 32/17 A2995 RMK A01 T03200166  RH  040%=      5-min Rain = 0
KNH1 242129Z 11006KT 32/17 A2995 RMK A01 T03190167  RH  040%=      5-min Rain = 0
KNH1 242130Z 09004KT 32/16 A2995 RMK A01 T03190163  RH  039%=      5-min Rain = 0
KNH1 242131Z 10004KT 32/16 A2994 RMK A01 T03180164  RH  039%=      5-min Rain = 0
KNH1 242132Z 15006KT 32/16 A2994 RMK A01 T03180163  RH  039%=      5-min Rain = 0
KNH1 242133Z 17005KT 32/16 A2994 RMK A01 T03160163  RH  040%=      5-min Rain = 0
KNH1 242134Z 17004KT 31/16 A2994 RMK A01 T03140162  RH  040%=      5-min Rain = 0
KNH1 242135Z 15005KT 31/16 A2994 RMK A01 T03120163  RH  041%=      5-min Rain = 0
KNH1 242136Z 16007KT 31/17 A2994 RMK A01 T03120165  RH  041%=      5-min Rain = 0
KNH1 242137Z 17006KT 31/17 A2994 RMK A01 T03130165  RH  041%=      5-min Rain = 0
KNH1 242138Z 16007KT 31/16 A2994 RMK A01 T03140164  RH  040%=      5-min Rain = 0
KNH1 242139Z 15008KT 32/16 A2994 RMK A01 T03150163  RH  040%=      5-min Rain = 0
KNH1 242140Z 17006KT 32/16 A2994 RMK A01 T03160163  RH  040%=      5-min Rain = 0
KNH1 242141Z 18005KT 32/16 A2994 RMK A01 T03150163  RH  040%=      5-min Rain = 0
KNH1 242142Z 13005KT 32/16 A2994 RMK A01 T03170164  RH  040%=      5-min Rain = 0
KNH1 242143Z 14004KT 32/16 A2994 RMK A01 T03200164  RH  039%=      5-min Rain = 0
KNH1 242144Z 11003KT 32/16 A2994 RMK A01 T03210163  RH  039%=      5-min Rain = 0
KNH1 242145Z 08004KT 32/17 A2994 RMK A01 T03210169  RH  040%=      5-min Rain = 0
KNH1 242146Z 09006KT 32/17 A2993 RMK A01 T03210172  RH  041%=      5-min Rain = 0
KNH1 242147Z 13007KT 32/17 A2993 RMK A01 T03200174  RH  042%=      5-min Rain = 0
KNH1 242148Z 12007KT 32/17 A2993 RMK A01 T03190172  RH  041%=      5-min Rain = 0
KNH1 242149Z 12009KT 32/17 A2993 RMK A01 T03200173  RH  041%=      5-min Rain = 0
KNH1 242150Z 10008KT 32/17 A2993 RMK A01 T03220173  RH  041%=      5-min Rain = 0
KNH1 242151Z 11007KT 32/17 A2993 RMK A01 T03210173  RH  041%=      5-min Rain = 0
KNH1 242152Z 12007KT 32/17 A2993 RMK A01 T03190172  RH  041%=      5-min Rain = 0
KNH1 242153Z 10006KT 32/17 A2993 RMK A01 T03190172  RH  041%=      5-min Rain = 0
KNH1 242154Z 09005KT 32/17 A2993 RMK A01 T03170172  RH  042%=      5-min Rain = 0
KNH1 242155Z 11006KT 31/17 A2993 RMK A01 T03140171  RH  042%=      5-min Rain = 0
KNH1 242156Z 13004KT 31/17 A2993 RMK A01 T03110171  RH  043%=      5-min Rain = 0
KNH1 242157Z 12006G12KT 31/17 A2993 RMK A01 T03120170  RH  043%=      5-min Rain = 0
KNH1 242158Z 12005KT 32/17 A2993 RMK A01 T03150170  RH  042%=      5-min Rain = 0
KNH1 242159Z 10006KT 32/17 A2993 RMK A01 T03160170  RH  042%=      5-min Rain = 0
KNH1 242200Z 10007KT 32/17 A2993 RMK A01 T03150170  RH  042%=      5-min Rain = 0
KNH1 242201Z 13007KT 31/17 A2993 RMK A01 T03130170  RH  042%=      5-min Rain = 0
KNH1 242202Z 14005KT 31/17 A2993 RMK A01 T03120167  RH  042%=      5-min Rain = 0
KNH1 242203Z 13007KT 31/17 A2993 RMK A01 T03110168  RH  042%=      5-min Rain = 0
KNH1 242204Z 11008KT 31/17 A2993 RMK A01 T03100166  RH  042%=      5-min Rain = 0
KNH1 242205Z 11007KT 31/16 A2993 RMK A01 T03090163  RH  042%=      5-min Rain = 0
KNH1 242206Z 10008KT 31/16 A2993 RMK A01 T03070164  RH  042%=      5-min Rain = 0
KNH1 242207Z 10006KT 31/16 A2993 RMK A01 T03070164  RH  042%=      5-min Rain = 0
KNH1 242208Z 08005KT 31/16 A2992 RMK A01 T03070164  RH  042%=      5-min Rain = 0
KNH1 242209Z 08007KT 31/17 A2992 RMK A01 T03080167  RH  043%=      5-min Rain = 0
KNH1 242210Z 09006KT 31/17 A2992 RMK A01 T03110168  RH  042%=      5-min Rain = 0
KNH1 242211Z 10005KT 31/17 A2992 RMK A01 T03130167  RH  041%=      5-min Rain = 0
KNH1 242212Z 10002KT 31/17 A2992 RMK A01 T03140167  RH  041%=      5-min Rain = 0
KNH1 242213Z 12004KT 31/17 A2992 RMK A01 T03140167  RH  041%=      5-min Rain = 0
KNH1 242214Z 14009KT 31/17 A2992 RMK A01 T03130169  RH  042%=      5-min Rain = 0
KNH1 242215Z 15007KT 31/17 A2992 RMK A01 T03120167  RH  042%=      5-min Rain = 0
KNH1 242216Z 15004KT 31/17 A2992 RMK A01 T03110167  RH  042%=      5-min Rain = 0
KNH1 242217Z 13003KT 31/17 A2992 RMK A01 T03110168  RH  042%=      5-min Rain = 0
KNH1 242218Z 11004KT 31/17 A2992 RMK A01 T03110168  RH  042%=      5-min Rain = 0
KNH1 242219Z 14003KT 31/17 A2992 RMK A01 T03110168  RH  042%=      5-min Rain = 0
KNH1 242220Z 06000KT 31/17 A2992 RMK A01 T03110169  RH  043%=      5-min Rain = 0
KNH1 242221Z 07003KT 31/17 A2992 RMK A01 T03120168  RH  042%=      5-min Rain = 0
KNH1 242222Z 09002KT 31/17 A2992 RMK A01 T03130167  RH  042%=      5-min Rain = 0
KNH1 242223Z 10005KT 31/17 A2992 RMK A01 T03130170  RH  042%=      5-min Rain = 0
KNH1 242224Z 05005KT 32/17 A2992 RMK A01 T03160168  RH  041%=      5-min Rain = 0
KNH1 242225Z 03005KT 32/17 A2992 RMK A01 T03160169  RH  041%=      5-min Rain = 0
KNH1 242226Z 35003KT 31/17 A2992 RMK A01 T03130166  RH  041%=      5-min Rain = 0
KNH1 242227Z 06002KT 31/17 A2992 RMK A01 T03110170  RH  043%=      5-min Rain = 0
KNH1 242228Z 10004G11KT 31/17 A2992 RMK A01 T03110170  RH  043%=      5-min Rain = 0
KNH1 242229Z 13005KT 31/17 A2992 RMK A01 T03130168  RH  042%=      5-min Rain = 0
KNH1 242230Z 11004KT 31/17 A2992 RMK A01 T03140166  RH  041%=      5-min Rain = 0
KNH1 242231Z 12007KT 32/17 A2992 RMK A01 T03170168  RH  041%=      5-min Rain = 0
KNH1 242232Z 11007KT 32/17 A2992 RMK A01 T03180167  RH  040%=      5-min Rain = 0
KNH1 242233Z 13006KT 32/17 A2992 RMK A01 T03180168  RH  041%=      5-min Rain = 0
KNH1 242234Z 14009KT 32/17 A2992 RMK A01 T03170168  RH  041%=      5-min Rain = 0
KNH1 242235Z 15006KT 32/17 A2992 RMK A01 T03160167  RH  041%=      5-min Rain = 0
KNH1 242236Z 14003KT 32/17 A2992 RMK A01 T03160169  RH  041%=      5-min Rain = 0
KNH1 242237Z 13002KT 32/17 A2992 RMK A01 T03170169  RH  041%=      5-min Rain = 0
KNH1 242238Z 12003KT 32/17 A2992 RMK A01 T03190170  RH  041%=      5-min Rain = 0
KNH1 242239Z 11002KT 32/17 A2992 RMK A01 T03200169  RH  040%=      5-min Rain = 0
KNH1 242240Z 11002KT 32/17 A2992 RMK A01 T03220171  RH  041%=      5-min Rain = 0
KNH1 242241Z 12002KT 32/17 A2992 RMK A01 T03220169  RH  040%=      5-min Rain = 0
KNH1 242242Z 08005KT 32/17 A2992 RMK A01 T03230169  RH  040%=      5-min Rain = 0
KNH1 242243Z 08008KT 32/17 A2992 RMK A01 T03220169  RH  040%=      5-min Rain = 0
KNH1 242244Z 10008KT 32/17 A2991 RMK A01 T03200170  RH  041%=      5-min Rain = 0
KNH1 242245Z 11004KT 32/17 A2992 RMK A01 T03200168  RH  040%=      5-min Rain = 0
KNH1 242246Z 10004KT 32/17 A2991 RMK A01 T03210172  RH  041%=      5-min Rain = 0
KNH1 242247Z 10004KT 32/17 A2991 RMK A01 T03210169  RH  040%=      5-min Rain = 0
KNH1 242248Z 13005KT 32/17 A2991 RMK A01 T03180168  RH  041%=      5-min Rain = 0
KNH1 242249Z 10007KT 32/17 A2992 RMK A01 T03170167  RH  041%=      5-min Rain = 0
KNH1 242250Z 10006KT 32/17 A2992 RMK A01 T03160166  RH  041%=      5-min Rain = 0
KNH1 242251Z 09004KT 32/17 A2992 RMK A01 T03170166  RH  040%=      5-min Rain = 0
KNH1 242252Z 09005KT 32/17 A2992 RMK A01 T03160168  RH  041%=      5-min Rain = 0
KNH1 242253Z 10005KT 32/17 A2992 RMK A01 T03170169  RH  041%=      5-min Rain = 0
KNH1 242254Z 10005KT 32/17 A2991 RMK A01 T03190167  RH  040%=      5-min Rain = 0
KNH1 242255Z 11003KT 32/17 A2991 RMK A01 T03210167  RH  040%=      5-min Rain = 0
KNH1 242256Z 10007KT 32/17 A2991 RMK A01 T03220167  RH  040%=      5-min Rain = 0
KNH1 242257Z 10007KT 32/17 A2991 RMK A01 T03220167  RH  039%=      5-min Rain = 0
KNH1 242258Z 11004KT 32/17 A2991 RMK A01 T03210168  RH  040%=      5-min Rain = 0
KNH1 242259Z 10004KT 32/16 A2991 RMK A01 T03220164  RH  039%=      5-min Rain = 0
KNH1 242300Z 10006KT 32/16 A2991 RMK A01 T03210164  RH  039%=      5-min Rain = 0
KNH1 242301Z 08006KT 32/16 A2991 RMK A01 T03200164  RH  039%=      5-min Rain = 0
KNH1 242302Z 09006G11KT 32/17 A2991 RMK A01 T03190167  RH  040%=      5-min Rain = 0
KNH1 242303Z 07007KT 32/17 A2991 RMK A01 T03210166  RH  039%=      5-min Rain = 0
KNH1 242304Z 10007KT 32/17 A2991 RMK A01 T03210168  RH  040%=      5-min Rain = 0
KNH1 242305Z 15006KT 32/17 A2991 RMK A01 T03220167  RH  039%=      5-min Rain = 0
KNH1 242306Z 14005KT 32/17 A2991 RMK A01 T03230165  RH  039%=      5-min Rain = 0
KNH1 242307Z 14004KT 32/16 A2991 RMK A01 T03240164  RH  038%=      5-min Rain = 0
KNH1 242308Z 11006G11KT 32/17 A2991 RMK A01 T03240165  RH  039%=      5-min Rain = 0
KNH1 242309Z 11011KT 33/16 A299 RMK A01 T03250163  RH  038%=      5-min Rain = 0
KNH1 242310Z 10009KT 33/16 A299 RMK A01 T03250163  RH  038%=      5-min Rain = 0
KNH1 242311Z 09006KT 32/16 A299 RMK A01 T03210162  RH  038%=      5-min Rain = 0
KNH1 242312Z 10003KT 32/16 A299 RMK A01 T03180163  RH  039%=      5-min Rain = 0
KNH1 242313Z 12005KT 32/16 A299 RMK A01 T03160164  RH  040%=      5-min Rain = 0
KNH1 242314Z 13007KT 32/17 A299 RMK A01 T03150165  RH  040%=      5-min Rain = 0
KNH1 242315Z 15009KT 32/16 A299 RMK A01 T03170164  RH  040%=      5-min Rain = 0
KNH1 242316Z 15008G13KT 32/16 A299 RMK A01 T03170164  RH  040%=      5-min Rain = 0
KNH1 242317Z 14009G14KT 32/16 A299 RMK A01 T03180164  RH  040%=      5-min Rain = 0
KNH1 242318Z 16009KT 32/16 A299 RMK A01 T03180164  RH  040%=      5-min Rain = 0
KNH1 242319Z 15006KT 32/16 A299 RMK A01 T03170163  RH  040%=      5-min Rain = 0
KNH1 242320Z 12007KT 32/16 A299 RMK A01 T03150163  RH  040%=      5-min Rain = 0
KNH1 242321Z 10007KT 31/16 A299 RMK A01 T03140163  RH  040%=      5-min Rain = 0
KNH1 242322Z 12006KT 31/16 A299 RMK A01 T03120163  RH  041%=      5-min Rain = 0
KNH1 242323Z 15006KT 31/16 A299 RMK A01 T03110163  RH  041%=      5-min Rain = 0
KNH1 242324Z 11005KT 31/16 A299 RMK A01 T03110163  RH  041%=      5-min Rain = 0
KNH1 242325Z 13003KT 31/16 A299 RMK A01 T03110163  RH  041%=      5-min Rain = 0
KNH1 242326Z 11003KT 31/16 A299 RMK A01 T03120163  RH  041%=      5-min Rain = 0
KNH1 242327Z 11005KT 32/16 A299 RMK A01 T03150163  RH  040%=      5-min Rain = 0
KNH1 242328Z 12005KT 32/16 A299 RMK A01 T03170164  RH  040%=      5-min Rain = 0
KNH1 242329Z 12004KT 32/16 A2989 RMK A01 T03190164  RH  039%=      5-min Rain = 0
KNH1 242330Z 14004KT 32/16 A2989 RMK A01 T03200163  RH  039%=      5-min Rain = 0
KNH1 242331Z 15004KT 32/16 A2989 RMK A01 T03200161  RH  039%=      5-min Rain = 0
KNH1 242332Z 13004KT 32/16 A2989 RMK A01 T03180163  RH  039%=      5-min Rain = 0
KNH1 242333Z 11003KT 32/16 A2989 RMK A01 T03180160  RH  039%=      5-min Rain = 0
KNH1 242334Z 10004KT 32/17 A2989 RMK A01 T03170166  RH  040%=      5-min Rain = 0
KNH1 242335Z 09007KT 32/16 A2989 RMK A01 T03170163  RH  040%=      5-min Rain = 0
KNH1 242336Z 10006KT 31/16 A2989 RMK A01 T03140162  RH  040%=      5-min Rain = 0
KNH1 242337Z 09008KT 31/16 A299 RMK A01 T03130162  RH  040%=      5-min Rain = 0
KNH1 242338Z 08006KT 31/16 A299 RMK A01 T03130161  RH  040%=      5-min Rain = 0
KNH1 242339Z 09006KT 31/16 A299 RMK A01 T03130161  RH  040%=      5-min Rain = 0
KNH1 242340Z 10006KT 31/16 A299 RMK A01 T03120161  RH  040%=      5-min Rain = 0
KNH1 242341Z 13005KT 31/16 A299 RMK A01 T03130163  RH  041%=      5-min Rain = 0
KNH1 242342Z 15007KT 32/16 A2989 RMK A01 T03150162  RH  040%=      5-min Rain = 0
KNH1 242343Z 15005KT 32/16 A2989 RMK A01 T03170162  RH  039%=      5-min Rain = 0
KNH1 242344Z 15006KT 32/17 A2989 RMK A01 T03210165  RH  039%=      5-min Rain = 0
KNH1 242345Z 13011KT 32/16 A2989 RMK A01 T03230161  RH  038%=      5-min Rain = 0
KNH1 242346Z 14009KT 32/16 A2989 RMK A01 T03240162  RH  038%=      5-min Rain = 0
KNH1 242347Z 16005KT 32/16 A2988 RMK A01 T03210161  RH  038%=      5-min Rain = 0
KNH1 242348Z 19003KT 32/16 A2988 RMK A01 T03180163  RH  039%=      5-min Rain = 0
KNH1 242349Z 17002KT 32/16 A2988 RMK A01 T03180164  RH  040%=      5-min Rain = 0
KNH1 242350Z 13004G9KT 32/17 A2988 RMK A01 T03190165  RH  040%=      5-min Rain = 0
KNH1 242351Z 13007KT 32/17 A2988 RMK A01 T03210166  RH  039%=      5-min Rain = 0
KNH1 242352Z 13008KT 32/17 A2988 RMK A01 T03230167  RH  039%=      5-min Rain = 0
KNH1 242353Z 13010KT 32/17 A2988 RMK A01 T03230165  RH  039%=      5-min Rain = 0
KNH1 242354Z 13008KT 32/16 A2988 RMK A01 T03220164  RH  039%=      5-min Rain = 0
KNH1 242355Z 13008KT 32/17 A2988 RMK A01 T03190165  RH  040%=      5-min Rain = 0
KNH1 242356Z 12007KT 32/17 A2988 RMK A01 T03170165  RH  040%=      5-min Rain = 0
KNH1 242357Z 12008G13KT 32/17 A2988 RMK A01 T03150165  RH  041%=      5-min Rain = 0
KNH1 242358Z 13008KT 32/17 A2989 RMK A01 T03150166  RH  041%=      5-min Rain = 0
KNH1 242359Z 12010KT 32/17 A2989 RMK A01 T03170166  RH  040%=      5-min Rain = 0
KNH1 250000Z 13011G16KT 32/17 A2989 RMK A01 T03200170  RH  041%=      5-min Rain = 0
KNH1 250001Z 17014G22KT 32/17 A2989 RMK A01 T03200170  RH  041%=      5-min Rain = 0
KNH1 250002Z 16023G33KT 31/18 A2989 RMK A01 T03100179  RH  046%=      5-min Rain = 0
KNH1 250003Z 15019G25KT 29/18 A2989 RMK A01 T02890184  RH  053%=      5-min Rain = 0
KNH1 250004Z 16015G22KT 28/19 A2989 RMK A01 T02770185  RH  057%=      5-min Rain = 0
KNH1 250005Z 16020G31KT 28/18 A2989 RMK A01 T02750183  RH  057%=      5-min Rain = 0
KNH1 250006Z 16017G27KT 27/16 A2988 RMK A01 T02710164  RH  052%=      5-min Rain = 0
KNH1 250007Z 16025KT 27/15 A2988 RMK A01 T02660152  RH  049%=      5-min Rain = 0
KNH1 250008Z 16024G30KT 26/16 A2988 RMK A01 T02640157  RH  052%=      5-min Rain = 0
KNH1 250009Z 15021G27KT 26/16 A2987 RMK A01 T02590155  RH  053%=      5-min Rain = 0
KNH1 250010Z 15019G27KT 25/15 A2988 RMK A01 T02520151  RH  054%=      5-min Rain = 0
KNH1 250011Z 16015G22KT 25/15 A2988 RMK A01 T02470148  RH  054%=      5-min Rain = 0
KNH1 250012Z 15022G28KT 25/13 A2988 RMK A01 T02450134  RH  050%=      5-min Rain = 0
KNH1 250013Z 15017G24KT 24/13 A2988 RMK A01 T02420130  RH  050%=      5-min Rain = 0
KNH1 250014Z 15019G26KT 24/13 A2989 RMK A01 T02400132  RH  051%=      5-min Rain = 0
KNH1 250015Z 15016G23KT 24/13 A2989 RMK A01 T02390133  RH  051%=      5-min Rain = 0
KNH1 250016Z 15017G24KT 24/14 A299 RMK A01 T02400136  RH  052%=      5-min Rain = 0
KNH1 250017Z 14010G16KT 24/14 A299 RMK A01 T02400140  RH  053%=      5-min Rain = 0
KNH1 250018Z 15011G19KT 24/14 A299 RMK A01 T02420142  RH  054%=      5-min Rain = 0
KNH1 250019Z 14016G22KT 24/14 A299 RMK A01 T02430135  RH  051%=      5-min Rain = 0
KNH1 250020Z 14015G21KT 24/13 A299 RMK A01 T02390131  RH  051%=      5-min Rain = 0
KNH1 250021Z 14015G21KT 24/13 A299 RMK A01 T02370131  RH  051%=      5-min Rain = 0
KNH1 250022Z 14014KT 24/13 A299 RMK A01 T02360131  RH  052%=      5-min Rain = 0
KNH1 250023Z 14014G21KT 24/13 A299 RMK A01 T02360131  RH  052%=      5-min Rain = 0
KNH1 250024Z 13011KT 24/13 A2989 RMK A01 T02360129  RH  051%=      5-min Rain = 0
KNH1 250025Z 14012G17KT 24/13 A2989 RMK A01 T02360126  RH  050%=      5-min Rain = 0
KNH1 250026Z 13012KT 24/13 A2989 RMK A01 T02360126  RH  050%=      5-min Rain = 0
KNH1 250027Z 14012G17KT 24/13 A2989 RMK A01 T02370129  RH  051%=      5-min Rain = 0
KNH1 250028Z 14014KT 24/13 A2989 RMK A01 T02370133  RH  052%=      5-min Rain = 0
KNH1 250029Z 13007G13KT 24/14 A299 RMK A01 T02390137  RH  053%=      5-min Rain = 0
KNH1 250030Z 12010G16KT 24/14 A299 RMK A01 T02420139  RH  053%=      5-min Rain = 0
KNH1 250031Z 14012G17KT 24/14 A299 RMK A01 T02440140  RH  052%=      5-min Rain = 0
KNH1 250032Z 13011KT 25/14 A299 RMK A01 T02470139  RH  051%=      5-min Rain = 0
KNH1 250033Z 13008G15KT 25/14 A299 RMK A01 T02490139  RH  050%=      5-min Rain = 0
KNH1 250034Z 14013KT 25/14 A299 RMK A01 T02510140  RH  050%=      5-min Rain = 0
KNH1 250035Z 13009KT 25/14 A2989 RMK A01 T02510140  RH  050%=      5-min Rain = 0
KNH1 250036Z 13008KT 25/14 A2989 RMK A01 T02530142  RH  050%=      5-min Rain = 0
KNH1 250037Z 13009KT 26/14 A2989 RMK A01 T02550144  RH  050%=      5-min Rain = 0
KNH1 250038Z 13009KT 26/14 A2989 RMK A01 T02560144  RH  050%=      5-min Rain = 0
KNH1 250039Z 13011KT 26/15 A2989 RMK A01 T02570146  RH  050%=      5-min Rain = 0
KNH1 250040Z 12011KT 26/15 A2989 RMK A01 T02580146  RH  050%=      5-min Rain = 0
KNH1 250041Z 13010G15KT 26/15 A299 RMK A01 T02580146  RH  050%=      5-min Rain = 0
KNH1 250042Z 13011KT 26/15 A299 RMK A01 T02580148  RH  051%=      5-min Rain = 0
KNH1 250043Z 12008G13KT 26/15 A299 RMK A01 T02570150  RH  051%=      5-min Rain = 0
KNH1 250044Z 12010KT 26/15 A299 RMK A01 T02570152  RH  052%=      5-min Rain = 0
KNH1 250045Z 13006G11KT 26/15 A299 RMK A01 T02570153  RH  052%=      5-min Rain = 0
KNH1 250046Z 14006KT 26/15 A299 RMK A01 T02580153  RH  053%=      5-min Rain = 0
KNH1 250047Z 12008KT 26/16 A2991 RMK A01 T02580156  RH  053%=      5-min Rain = 0
KNH1 250048Z 14008KT 26/16 A2991 RMK A01 T02590164  RH  056%=      5-min Rain = 0
KNH1 250049Z 13010KT 26/17 A2991 RMK A01 T02600169  RH  057%=      5-min Rain = 0
KNH1 250050Z 12011G16KT 26/17 A2991 RMK A01 T02620172  RH  058%=      5-min Rain = 0
KNH1 250051Z 12012G17KT 26/18 A2992 RMK A01 T02630176  RH  059%=      5-min Rain = 0
KNH1 250052Z 13008G16KT 27/18 A2992 RMK A01 T02660182  RH  060%=      5-min Rain = 0
KNH1 250053Z 11011G16KT 27/18 A2992 RMK A01 T02670180  RH  059%=      5-min Rain = 0
KNH1 250054Z 11013KT 27/18 A2992 RMK A01 T02680181  RH  059%=      5-min Rain = 0
KNH1 250055Z 12009G15KT 27/18 A2992 RMK A01 T02670183  RH  060%=      5-min Rain = 0
KNH1 250056Z 13011G17KT 27/19 A2993 RMK A01 T02670185  RH  061%=      5-min Rain = 0
KNH1 250057Z 13010KT 27/19 A2992 RMK A01 T02670189  RH  062%=      5-min Rain = 0
KNH1 250058Z 13007KT 27/19 A2993 RMK A01 T02670189  RH  062%=      5-min Rain = 0
KNH1 250059Z 13010KT 27/19 A2993 RMK A01 T02660189  RH  062%=      5-min Rain = 0
KNH1 250100Z 13006KT 27/19 A2992 RMK A01 T02660188  RH  062%=      5-min Rain = 0
KNH1 250101Z 12007KT 27/19 A2993 RMK A01 T02660191  RH  063%=      5-min Rain = 0
KNH1 250102Z 11007KT 27/20 A2993 RMK A01 T02680196  RH  065%=      5-min Rain = 0
KNH1 250103Z 11008KT 27/20 A2993 RMK A01 T02690198  RH  065%=      5-min Rain = 0
KNH1 250104Z 11008KT 27/20 A2993 RMK A01 T02700199  RH  065%=      5-min Rain = 0
KNH1 250105Z 09007KT 27/20 A2993 RMK A01 T02700199  RH  065%=      5-min Rain = 0
KNH1 250106Z 07009KT 27/20 A2993 RMK A01 T02700199  RH  065%=      5-min Rain = 0
KNH1 250107Z 09009KT 27/20 A2993 RMK A01 T02700199  RH  065%=      5-min Rain = 0
KNH1 250108Z 07013G20KT 27/20 A2993 RMK A01 T02700197  RH  064%=      5-min Rain = 0
KNH1 250109Z 03014KT 27/18 A2993 RMK A01 T02690175  RH  056%=      5-min Rain = 0
KNH1 250110Z 04012KT 26/17 A2993 RMK A01 T02630166  RH  055%=      5-min Rain = 0
KNH1 250111Z 03011KT 26/17 A2993 RMK A01 T02580166  RH  057%=      5-min Rain = 0
KNH1 250112Z 04008KT 26/17 A2993 RMK A01 T02560166  RH  057%=      5-min Rain = 0
KNH1 250113Z 06008KT 25/17 A2993 RMK A01 T02540168  RH  059%=      5-min Rain = 0
KNH1 250114Z 06013KT 25/17 A2993 RMK A01 T02530170  RH  060%=      5-min Rain = 0
KNH1 250115Z 05011KT 25/17 A2993 RMK A01 T02520170  RH  060%=      5-min Rain = 0
KNH1 250116Z 03006KT 25/17 A2994 RMK A01 T02530169  RH  060%=      5-min Rain = 0
KNH1 250117Z 07007KT 25/17 A2994 RMK A01 T02540170  RH  060%=      5-min Rain = 0
KNH1 250118Z 07003G8KT 26/18 A2994 RMK A01 T02550177  RH  062%=      5-min Rain = 0
KNH1 250119Z 09012G18KT 26/18 A2994 RMK A01 T02560182  RH  064%=      5-min Rain = 0
KNH1 250120Z 10016KT 26/19 A2994 RMK A01 T02590186  RH  064%=      5-min Rain = 0
KNH1 250121Z 09016KT 26/19 A2994 RMK A01 T02610186  RH  063%=      5-min Rain = 0
KNH1 250122Z 09012KT 26/18 A2993 RMK A01 T02620184  RH  062%=      5-min Rain = 0
KNH1 250123Z 10014KT 26/19 A2993 RMK A01 T02630187  RH  063%=      5-min Rain = 0
KNH1 250124Z 10016G21KT 27/19 A2993 RMK A01 T02660187  RH  062%=      5-min Rain = 0
KNH1 250125Z 09015KT 27/19 A2993 RMK A01 T02670187  RH  062%=      5-min Rain = 0
KNH1 250126Z 08013KT 27/19 A2993 RMK A01 T02650186  RH  062%=      5-min Rain = 0
KNH1 250127Z 07015KT 26/19 A2993 RMK A01 T02640185  RH  062%=      5-min Rain = 0
KNH1 250128Z 07013KT 26/18 A2993 RMK A01 T02640182  RH  061%=      5-min Rain = 0
KNH1 250129Z 07013KT 26/16 A2993 RMK A01 T02610164  RH  055%=      5-min Rain = 0
KNH1 250130Z 06013KT 25/16 A2993 RMK A01 T02540161  RH  057%=      5-min Rain = 0
KNH1 250131Z 08013KT 25/17 A2993 RMK A01 T02510170  RH  061%=      5-min Rain = 0
KNH1 250132Z 07014KT 25/17 A2993 RMK A01 T02520170  RH  061%=      5-min Rain = 0
KNH1 250133Z 08010G16KT 25/17 A2993 RMK A01 T02530172  RH  061%=      5-min Rain = 0
KNH1 250134Z 08010KT 25/17 A2993 RMK A01 T02540168  RH  059%=      5-min Rain = 0
KNH1 250135Z 08013KT 25/17 A2994 RMK A01 T02540168  RH  059%=      5-min Rain = 0
KNH1 250136Z 08014G19KT 26/17 A2994 RMK A01 T02560172  RH  060%=      5-min Rain = 0
KNH1 250137Z 08013KT 26/18 A2994 RMK A01 T02580175  RH  060%=      5-min Rain = 0
KNH1 250138Z 08014KT 26/18 A2994 RMK A01 T02580177  RH  061%=      5-min Rain = 0
KNH1 250139Z 07015KT 26/17 A2994 RMK A01 T02580173  RH  060%=      5-min Rain = 0
KNH1 250140Z 07013G18KT 26/17 A2994 RMK A01 T02570171  RH  059%=      5-min Rain = 0
KNH1 250141Z 06015KT 26/17 A2994 RMK A01 T02560171  RH  060%=      5-min Rain = 0
KNH1 250142Z 06015KT 25/18 A2994 RMK A01 T02540177  RH  062%=      5-min Rain = 0
KNH1 250143Z 06013G18KT 25/18 A2994 RMK A01 T02520180  RH  064%=      5-min Rain = 0
KNH1 250144Z 06014KT 25/18 A2994 RMK A01 T02500179  RH  065%=      5-min Rain = 0
KNH1 250145Z 06012G17KT 25/18 A2994 RMK A01 T02490178  RH  065%=      5-min Rain = 0
KNH1 250146Z 05013KT 25/18 A2995 RMK A01 T02490179  RH  065%=      5-min Rain = 0
KNH1 250147Z 05012G18KT 25/18 A2995 RMK A01 T02480177  RH  065%=      5-min Rain = 0
KNH1 250148Z 04011KT 25/17 A2995 RMK A01 T02450172  RH  064%=      5-min Rain = 0
KNH1 250149Z 04012KT 24/17 A2994 RMK A01 T02410173  RH  066%=      5-min Rain = 0
KNH1 250150Z 04010KT 24/18 A2994 RMK A01 T02400176  RH  067%=      5-min Rain = 0
KNH1 250151Z 06010G17KT 24/18 A2994 RMK A01 T02390177  RH  068%=      5-min Rain = 0
KNH1 250152Z 07011KT 24/18 A2994 RMK A01 T02390180  RH  069%=      5-min Rain = 0
KNH1 250153Z 08013G18KT 24/18 A2994 RMK A01 T02420183  RH  070%=      5-min Rain = 0
KNH1 250154Z 08013G18KT 25/19 A2994 RMK A01 T02450187  RH  070%=      5-min Rain = 0
KNH1 250155Z 08017G23KT 25/19 A2993 RMK A01 T02480189  RH  070%=      5-min Rain = 0
KNH1 250156Z 09013KT 25/19 A2993 RMK A01 T02490191  RH  070%=      5-min Rain = 0
KNH1 250157Z 08019KT 25/19 A2993 RMK A01 T02490191  RH  070%=      5-min Rain = 0
KNH1 250158Z 08019G24KT 25/19 A2993 RMK A01 T02480191  RH  070%=      5-min Rain = 0
KNH1 250159Z 08016KT 25/19 A2993 RMK A01 T02470190  RH  070%=      5-min Rain = 0
KNH1 250200Z 09015KT 25/19 A2993 RMK A01 T02470190  RH  071%=      5-min Rain = 0
KNH1 250201Z 09015KT 25/19 A2993 RMK A01 T02470191  RH  071%=      5-min Rain = 0
KNH1 250202Z 09014KT 25/19 A2994 RMK A01 T02460190  RH  071%=      5-min Rain = 0
KNH1 250203Z 08013KT 25/19 A2994 RMK A01 T02460190  RH  071%=      5-min Rain = 0
KNH1 250204Z 08013G18KT 25/19 A2994 RMK A01 T02450190  RH  071%=      5-min Rain = 0
KNH1 250205Z 08013KT 25/19 A2994 RMK A01 T02450190  RH  071%=      5-min Rain = 0
KNH1 250206Z 08013KT 25/19 A2994 RMK A01 T02450191  RH  072%=      5-min Rain = 0
KNH1 250207Z 07012G17KT 25/19 A2994 RMK A01 T02450191  RH  072%=      5-min Rain = 0
KNH1 250208Z 08012KT 25/19 A2994 RMK A01 T02450192  RH  073%=      5-min Rain = 0
KNH1 250209Z 08015KT 24/19 A2994 RMK A01 T02440187  RH  070%=      5-min Rain = 0
KNH1 250210Z 09010KT 25/18 A2994 RMK A01 T02450180  RH  067%=      5-min Rain = 0
KNH1 250211Z 10012KT 25/18 A2994 RMK A01 T02460181  RH  067%=      5-min Rain = 0
KNH1 250212Z 10013G18KT 25/18 A2994 RMK A01 T02470182  RH  067%=      5-min Rain = 0
KNH1 250213Z 10015G20KT 25/19 A2994 RMK A01 T02480186  RH  068%=      5-min Rain = 0
KNH1 250214Z 10015KT 25/19 A2994 RMK A01 T02470191  RH  071%=      5-min Rain = 0
KNH1 250215Z 11014KT 25/19 A2994 RMK A01 T02460193  RH  072%=      5-min Rain = 0
KNH1 250216Z 11014KT 25/20 A2994 RMK A01 T02450195  RH  074%=      5-min Rain = 0
KNH1 250217Z 11014G19KT 25/20 A2994 RMK A01 T02450196  RH  074%=      5-min Rain = 0
KNH1 250218Z 11012KT 24/20 A2994 RMK A01 T02440196  RH  074%=      5-min Rain = 0
KNH1 250219Z 11012G17KT 24/20 A2994 RMK A01 T02440196  RH  075%=      5-min Rain = 0
KNH1 250220Z 11013G19KT 24/20 A2994 RMK A01 T02430197  RH  076%=      5-min Rain = 0
KNH1 250221Z 11012KT 24/20 A2994 RMK A01 T02420197  RH  076%=      5-min Rain = 0
KNH1 250222Z 11012KT 24/20 A2994 RMK A01 T02420197  RH  076%=      5-min Rain = 0
KNH1 250223Z 11013G18KT 24/20 A2993 RMK A01 T02410197  RH  076%=      5-min Rain = 0
KNH1 250224Z 12011KT 24/20 A2993 RMK A01 T02410197  RH  076%=      5-min Rain = 0
KNH1 250225Z 11013KT 24/20 A2993 RMK A01 T02410197  RH  076%=      5-min Rain = 0
KNH1 250226Z 11012KT 24/20 A2993 RMK A01 T02410196  RH  076%=      5-min Rain = 0
KNH1 250227Z 11012KT 24/20 A2993 RMK A01 T02410195  RH  076%=      5-min Rain = 0
KNH1 250228Z 11012KT 24/20 A2993 RMK A01 T02400195  RH  076%=      5-min Rain = 0
KNH1 250229Z 11012KT 24/20 A2993 RMK A01 T02410195  RH  076%=      5-min Rain = 0
KNH1 250230Z 11013G18KT 24/19 A2993 RMK A01 T02400194  RH  075%=      5-min Rain = 0
KNH1 250231Z 11012KT 24/19 A2993 RMK A01 T02400194  RH  076%=      5-min Rain = 0
KNH1 250232Z 11013G18KT 24/20 A2993 RMK A01 T02400195  RH  076%=      5-min Rain = 0
KNH1 250233Z 12012KT 24/20 A2993 RMK A01 T02400195  RH  076%=      5-min Rain = 0
KNH1 250234Z 11015KT 24/20 A2993 RMK A01 T02390196  RH  077%=      5-min Rain = 0
KNH1 250235Z 11012KT 24/20 A2993 RMK A01 T02390196  RH  077%=      5-min Rain = 0
KNH1 250236Z 11013KT 24/20 A2993 RMK A01 T02390197  RH  077%=      5-min Rain = 0
KNH1 250237Z 12012KT 24/20 A2993 RMK A01 T02380197  RH  078%=      5-min Rain = 0
KNH1 250238Z 12012G17KT 24/20 A2993 RMK A01 T02380198  RH  078%=      5-min Rain = 0
KNH1 250239Z 11011KT 24/20 A2994 RMK A01 T02380198  RH  078%=      5-min Rain = 0
KNH1 250240Z 11012G18KT 24/20 A2994 RMK A01 T02380199  RH  079%=      5-min Rain = 0
KNH1 250241Z 12012G17KT 24/20 A2994 RMK A01 T02370200  RH  079%=      5-min Rain = 0
KNH1 250242Z 11014KT 24/20 A2994 RMK A01 T02370200  RH  080%=      5-min Rain = 0
KNH1 250243Z 11013KT 24/20 A2994 RMK A01 T02370201  RH  080%=      5-min Rain = 0
KNH1 250244Z 11013KT 24/20 A2994 RMK A01 T02370201  RH  080%=      5-min Rain = 0
KNH1 250245Z 11012KT 24/20 A2994 RMK A01 T02370202  RH  081%=      5-min Rain = 0
KNH1 250246Z 11016KT 24/20 A2994 RMK A01 T02360202  RH  081%=      5-min Rain = 0
KNH1 250247Z 11012KT 24/20 A2994 RMK A01 T02360202  RH  081%=      5-min Rain = 0
KNH1 250248Z 11013KT 24/20 A2994 RMK A01 T02370202  RH  081%=      5-min Rain = 0
KNH1 250249Z 11014KT 24/20 A2994 RMK A01 T02360202  RH  081%=      5-min Rain = 0
KNH1 250250Z 12015KT 24/20 A2994 RMK A01 T02370202  RH  081%=      5-min Rain = 0
KNH1 250251Z 11015KT 24/20 A2994 RMK A01 T02360202  RH  081%=      5-min Rain = 0
KNH1 250252Z 11016G21KT 24/20 A2994 RMK A01 T02360200  RH  081%=      5-min Rain = 0
KNH1 250253Z 12011KT 24/20 A2994 RMK A01 T02350200  RH  080%=      5-min Rain = 0
KNH1 250254Z 12011G16KT 24/20 A2994 RMK A01 T02350200  RH  080%=      5-min Rain = 0
KNH1 250255Z 12013G18KT 24/20 A2994 RMK A01 T02350200  RH  080%=      5-min Rain = 0
KNH1 250256Z 12009KT 24/20 A2994 RMK A01 T02350200  RH  081%=      5-min Rain = 0
KNH1 250257Z 12012KT 24/20 A2994 RMK A01 T02350200  RH  081%=      5-min Rain = 0
KNH1 250258Z 12012KT 24/20 A2994 RMK A01 T02350200  RH  081%=      5-min Rain = 0
KNH1 250259Z 12011KT 24/20 A2994 RMK A01 T02350200  RH  081%=      5-min Rain = 0
KNH1 250300Z 12010G17KT 24/20 A2994 RMK A01 T02350200  RH  081%=      5-min Rain = 0
KNH1 250301Z 12010G15KT 24/20 A2994 RMK A01 T02350199  RH  081%=      5-min Rain = 0
KNH1 250302Z 12009KT 24/20 A2994 RMK A01 T02350198  RH  080%=      5-min Rain = 0
KNH1 250303Z 13010KT 23/20 A2995 RMK A01 T02340197  RH  080%=      5-min Rain = 0
KNH1 250304Z 13011KT 23/20 A2995 RMK A01 T02340196  RH  079%=      5-min Rain = 0
KNH1 250305Z 12011KT 23/20 A2995 RMK A01 T02340195  RH  079%=      5-min Rain = 0
KNH1 250306Z 12010KT 23/19 A2995 RMK A01 T02340194  RH  078%=      5-min Rain = 0
KNH1 250307Z 12011KT 23/19 A2995 RMK A01 T02340193  RH  078%=      5-min Rain = 0
KNH1 250308Z 12011KT 23/19 A2995 RMK A01 T02340191  RH  077%=      5-min Rain = 0
KNH1 250309Z 12010G15KT 23/19 A2995 RMK A01 T02340191  RH  077%=      5-min Rain = 0
KNH1 250310Z 12010G15KT 23/19 A2995 RMK A01 T02340192  RH  077%=      5-min Rain = 0
KNH1 250311Z 12011G17KT 23/19 A2995 RMK A01 T02340191  RH  077%=      5-min Rain = 0
KNH1 250312Z 12010KT 23/19 A2995 RMK A01 T02340192  RH  077%=      5-min Rain = 0
KNH1 250313Z 12009KT 23/19 A2995 RMK A01 T02340192  RH  077%=      5-min Rain = 0
KNH1 250314Z 12011G16KT 23/19 A2995 RMK A01 T02340193  RH  078%=      5-min Rain = 0
KNH1 250315Z 12009KT 23/19 A2995 RMK A01 T02340194  RH  078%=      5-min Rain = 0
KNH1 250316Z 12011G16KT 23/19 A2995 RMK A01 T02340194  RH  078%=      5-min Rain = 0
KNH1 250317Z 13010KT 23/20 A2996 RMK A01 T02340195  RH  079%=      5-min Rain = 0
KNH1 250318Z 12010KT 23/20 A2996 RMK A01 T02340195  RH  079%=      5-min Rain = 0
KNH1 250319Z 13011G16KT 23/20 A2996 RMK A01 T02330196  RH  079%=      5-min Rain = 0
KNH1 250320Z 12010KT 23/20 A2996 RMK A01 T02330196  RH  080%=      5-min Rain = 0
KNH1 250321Z 12010KT 23/20 A2996 RMK A01 T02320197  RH  080%=      5-min Rain = 0
KNH1 250322Z 13009KT 23/20 A2996 RMK A01 T02320197  RH  081%=      5-min Rain = 0
KNH1 250323Z 13009G14KT 23/20 A2996 RMK A01 T02320197  RH  081%=      5-min Rain = 0
KNH1 250324Z 13011KT 23/20 A2996 RMK A01 T02310196  RH  081%=      5-min Rain = 0
KNH1 250325Z 13010KT 23/20 A2997 RMK A01 T02310196  RH  081%=      5-min Rain = 0
KNH1 250326Z 13009G15KT 23/20 A2997 RMK A01 T02310196  RH  081%=      5-min Rain = 0
KNH1 250327Z 13011KT 23/20 A2997 RMK A01 T02310196  RH  081%=      5-min Rain = 0
KNH1 250328Z 13009KT 23/20 A2997 RMK A01 T02310196  RH  081%=      5-min Rain = 0
KNH1 250329Z 13010KT 23/20 A2997 RMK A01 T02310196  RH  081%=      5-min Rain = 0
KNH1 250330Z 12010G17KT 23/20 A2997 RMK A01 T02310195  RH  081%=      5-min Rain = 0
KNH1 250331Z 13010KT 23/20 A2997 RMK A01 T02310195  RH  080%=      5-min Rain = 0
KNH1 250332Z 12011KT 23/20 A2997 RMK A01 T02310195  RH  080%=      5-min Rain = 0
KNH1 250333Z 13008KT 23/19 A2997 RMK A01 T02310194  RH  080%=      5-min Rain = 0
KNH1 250334Z 13009KT 23/19 A2998 RMK A01 T02310192  RH  079%=      5-min Rain = 0
KNH1 250335Z 12009G14KT 23/19 A2998 RMK A01 T02310188  RH  077%=      5-min Rain = 0
KNH1 250336Z 13010KT 23/19 A2998 RMK A01 T02310187  RH  076%=      5-min Rain = 0
KNH1 250337Z 12010G15KT 23/19 A2998 RMK A01 T02310185  RH  075%=      5-min Rain = 0
KNH1 250338Z 13013KT 23/18 A2998 RMK A01 T02310181  RH  073%=      5-min Rain = 0
KNH1 250339Z 13011KT 23/18 A2998 RMK A01 T02310178  RH  072%=      5-min Rain = 0
KNH1 250340Z 13010KT 23/18 A2998 RMK A01 T02310177  RH  072%=      5-min Rain = 0
KNH1 250341Z 14006KT 23/18 A2998 RMK A01 T02310176  RH  071%=      5-min Rain = 0
KNH1 250342Z 13010KT 23/18 A2998 RMK A01 T02300176  RH  071%=      5-min Rain = 0
KNH1 250343Z 13010KT 23/18 A2997 RMK A01 T02300175  RH  071%=      5-min Rain = 0
KNH1 250344Z 13008KT 23/17 A2997 RMK A01 T02300174  RH  071%=      5-min Rain = 0
KNH1 250345Z 13008KT 23/17 A2998 RMK A01 T02300174  RH  071%=      5-min Rain = 0
KNH1 250346Z 13008KT 23/17 A2998 RMK A01 T02300174  RH  071%=      5-min Rain = 0
KNH1 250347Z 13008KT 23/18 A2998 RMK A01 T02300175  RH  071%=      5-min Rain = 0
KNH1 250348Z 13007KT 23/18 A2998 RMK A01 T02290175  RH  071%=      5-min Rain = 0
KNH1 250349Z 13007KT 23/18 A2998 RMK A01 T02290175  RH  072%=      5-min Rain = 0
KNH1 250350Z 12008KT 23/18 A2998 RMK A01 T02280176  RH  072%=      5-min Rain = 0
KNH1 250351Z 12007KT 23/18 A2998 RMK A01 T02280176  RH  072%=      5-min Rain = 0
KNH1 250352Z 11010KT 23/18 A2998 RMK A01 T02280176  RH  072%=      5-min Rain = 0
KNH1 250353Z 11009KT 23/18 A2998 RMK A01 T02280175  RH  072%=      5-min Rain = 0
KNH1 250354Z 11010KT 23/18 A2998 RMK A01 T02270175  RH  072%=      5-min Rain = 0
KNH1 250355Z 11007KT 23/18 A2998 RMK A01 T02260175  RH  073%=      5-min Rain = 0
KNH1 250356Z 12007KT 23/18 A2998 RMK A01 T02260175  RH  073%=      5-min Rain = 0
KNH1 250357Z 12007KT 23/18 A2998 RMK A01 T02250176  RH  074%=      5-min Rain = 0
KNH1 250358Z 13008KT 22/18 A2998 RMK A01 T02240177  RH  074%=      5-min Rain = 0
KNH1 250359Z 12008KT 22/18 A2998 RMK A01 T02240179  RH  075%=      5-min Rain = 0
KNH1 250400Z 12008G13KT 22/18 A2998 RMK A01 T02240180  RH  076%=      5-min Rain = 0
KNH1 250401Z 12008KT 22/18 A2998 RMK A01 T02240181  RH  077%=      5-min Rain = 0
KNH1 250402Z 13009G14KT 22/18 A2998 RMK A01 T02240182  RH  077%=      5-min Rain = 0
KNH1 250403Z 13010KT 23/18 A2998 RMK A01 T02250183  RH  077%=      5-min Rain = 0
KNH1 250404Z 13007KT 23/18 A2999 RMK A01 T02250184  RH  078%=      5-min Rain = 0
KNH1 250405Z 12007KT 23/19 A2999 RMK A01 T02250185  RH  078%=      5-min Rain = 0
KNH1 250406Z 12007KT 23/19 A2999 RMK A01 T02250186  RH  078%=      5-min Rain = 0
KNH1 250407Z 13007KT 23/19 A2999 RMK A01 T02260186  RH  078%=      5-min Rain = 0
KNH1 250408Z 12008KT 23/19 A2999 RMK A01 T02260187  RH  079%=      5-min Rain = 0
KNH1 250409Z 12006KT 23/19 A2999 RMK A01 T02260187  RH  079%=      5-min Rain = 0
KNH1 250410Z 12007KT 23/19 A2999 RMK A01 T02260188  RH  079%=      5-min Rain = 0
KNH1 250411Z 12007KT 23/19 A2999 RMK A01 T02250188  RH  079%=      5-min Rain = 0
KNH1 250412Z 13008KT 23/19 A2999 RMK A01 T02250188  RH  079%=      5-min Rain = 0
KNH1 250413Z 12006KT 23/19 A2999 RMK A01 T02250189  RH  080%=      5-min Rain = 0
KNH1 250414Z 13008KT 23/19 A2999 RMK A01 T02250189  RH  080%=      5-min Rain = 0
KNH1 250415Z 13005KT 23/19 A2999 RMK A01 T02250189  RH  080%=      5-min Rain = 0
KNH1 250416Z 12006KT 23/19 A2999 RMK A01 T02250189  RH  080%=      5-min Rain = 0
KNH1 250417Z 12007KT 23/19 A2999 RMK A01 T02250189  RH  080%=      5-min Rain = 0
KNH1 250418Z 13007KT 22/19 A2999 RMK A01 T02240189  RH  080%=      5-min Rain = 0
KNH1 250419Z 14007KT 22/19 A2999 RMK A01 T02240189  RH  080%=      5-min Rain = 0
KNH1 250420Z 13006KT 23/19 A2999 RMK A01 T02250189  RH  080%=      5-min Rain = 0
KNH1 250421Z 13007KT 23/19 A2999 RMK A01 T02250188  RH  080%=      5-min Rain = 0
KNH1 250422Z 14006KT 23/19 A2999 RMK A01 T02250187  RH  079%=      5-min Rain = 0
KNH1 250423Z 13006KT 22/19 A2999 RMK A01 T02240186  RH  079%=      5-min Rain = 0
KNH1 250424Z 14007KT 23/19 A2999 RMK A01 T02250187  RH  079%=      5-min Rain = 0
KNH1 250425Z 13007KT 23/19 A2999 RMK A01 T02250186  RH  078%=      5-min Rain = 0
KNH1 250426Z 13006KT 23/19 A2999 RMK A01 T02250185  RH  078%=      5-min Rain = 0
KNH1 250427Z 13006KT 23/19 A2999 RMK A01 T02250185  RH  078%=      5-min Rain = 0
KNH1 250428Z 13005KT 23/18 A2999 RMK A01 T02250184  RH  078%=      5-min Rain = 0
KNH1 250429Z 13006KT 23/18 A2999 RMK A01 T02250184  RH  078%=      5-min Rain = 0
KNH1 250430Z 12005KT 22/18 A2999 RMK A01 T02240183  RH  077%=      5-min Rain = 0
KNH1 250431Z 13005KT 22/18 A2999 RMK A01 T02240183  RH  077%=      5-min Rain = 0
KNH1 250432Z 13007KT 22/18 A2999 RMK A01 T02230182  RH  077%=      5-min Rain = 0
KNH1 250433Z 13006KT 22/18 A2999 RMK A01 T02230182  RH  078%=      5-min Rain = 0
KNH1 250434Z 13006KT 22/18 A2999 RMK A01 T02230182  RH  078%=      5-min Rain = 0
KNH1 250435Z 13007KT 22/18 A2999 RMK A01 T02230182  RH  078%=      5-min Rain = 0
KNH1 250436Z 14006KT 22/18 A2999 RMK A01 T02220181  RH  077%=      5-min Rain = 0
KNH1 250437Z 14007KT 22/18 A2999 RMK A01 T02230182  RH  078%=      5-min Rain = 0
KNH1 250438Z 13006KT 22/18 A2999 RMK A01 T02220182  RH  078%=      5-min Rain = 0
KNH1 250439Z 13006KT 22/18 A2999 RMK A01 T02220182  RH  078%=      5-min Rain = 0
KNH1 250440Z 14007KT 22/18 A2999 RMK A01 T02220182  RH  078%=      5-min Rain = 0
KNH1 250441Z 14007KT 22/18 A2999 RMK A01 T02230183  RH  078%=      5-min Rain = 0
KNH1 250442Z 14007KT 22/18 A30 RMK A01 T02230184  RH  078%=      5-min Rain = 0
KNH1 250443Z 14008KT 22/18 A30 RMK A01 T02240184  RH  078%=      5-min Rain = 0
KNH1 250444Z 14009KT 23/19 A30 RMK A01 T02250185  RH  078%=      5-min Rain = 0
KNH1 250445Z 14010KT 23/19 A30 RMK A01 T02260186  RH  078%=      5-min Rain = 0
KNH1 250446Z 14008KT 23/19 A30 RMK A01 T02270186  RH  078%=      5-min Rain = 0
KNH1 250447Z 14008KT 23/19 A30 RMK A01 T02270186  RH  077%=      5-min Rain = 0
KNH1 250448Z 13007KT 23/19 A30 RMK A01 T02280186  RH  077%=      5-min Rain = 0
KNH1 250449Z 13008KT 23/19 A30 RMK A01 T02280186  RH  077%=      5-min Rain = 0
KNH1 250450Z 14009KT 23/19 A30 RMK A01 T02270186  RH  077%=      5-min Rain = 0
KNH1 250451Z 14008KT 23/19 A30 RMK A01 T02270186  RH  078%=      5-min Rain = 0
KNH1 250452Z 14009KT 23/19 A30 RMK A01 T02270187  RH  078%=      5-min Rain = 0
KNH1 250453Z 14009KT 23/19 A30 RMK A01 T02270187  RH  078%=      5-min Rain = 0
KNH1 250454Z 14009KT 23/19 A30 RMK A01 T02270188  RH  078%=      5-min Rain = 0
KNH1 250455Z 15010G15KT 23/19 A30 RMK A01 T02280188  RH  078%=      5-min Rain = 0
KNH1 250456Z 15010KT 23/19 A30 RMK A01 T02280189  RH  079%=      5-min Rain = 0
KNH1 250457Z 15007KT 23/19 A30 RMK A01 T02290190  RH  079%=      5-min Rain = 0
KNH1 250458Z 15009G14KT 23/19 A30 RMK A01 T02300191  RH  079%=      5-min Rain = 0
KNH1 250459Z 16010KT 23/19 A30 RMK A01 T02300192  RH  079%=      5-min Rain = 0

Page generated in 0.0709 seconds.